<?xml version="1.0" encoding="UTF-8" standalone="no" ?>
<gpx xmlns="http://www.topografix.com/GPX/1/1" xmlns:xsi="http://www.w3.org/2001/XMLSchema-instance" xsi:schemaLocation="http://www.topografix.com/GPX/1/1 http://www.topografix.com/GPX/1/1/gpx.xsd" version="1.1" creator="VisuGPX - https://www.visugpx.com">
  <metadata>
    <name>Balade découverte Niort</name>
    <desc><![CDATA[Sans aucune difficulté]]></desc>
  </metadata>
  <trk>
    <name><![CDATA[SityTrail - Balade découverte Niort]]></name>
    <desc><![CDATA[Sans aucune difficulté]]></desc>
    <trkseg>
      <trkpt lat="46.31899" lon="-0.46829">
        <ele>23</ele>
        <time>2023-07-18T13:36:34.423+00:00</time>
      </trkpt>
      <trkpt lat="46.31899" lon="-0.46829">
        <ele>23</ele>
        <time>2023-07-18T13:36:34.423+00:00</time>
      </trkpt>
      <trkpt lat="46.31895" lon="-0.4683">
        <ele>23</ele>
        <time>2023-07-18T13:37:28.256+00:00</time>
      </trkpt>
      <trkpt lat="46.31893" lon="-0.46823">
        <ele>23</ele>
        <time>2023-07-18T13:37:32.637+00:00</time>
      </trkpt>
      <trkpt lat="46.31895" lon="-0.46818">
        <ele>23</ele>
        <time>2023-07-18T13:37:37.015+00:00</time>
      </trkpt>
      <trkpt lat="46.31897" lon="-0.46817">
        <ele>23</ele>
        <time>2023-07-18T13:37:40.757+00:00</time>
      </trkpt>
      <trkpt lat="46.31897" lon="-0.46815">
        <ele>23</ele>
        <time>2023-07-18T13:37:44.597+00:00</time>
      </trkpt>
      <trkpt lat="46.31898" lon="-0.46811">
        <ele>23</ele>
        <time>2023-07-18T13:52:10.043+00:00</time>
      </trkpt>
      <trkpt lat="46.31897" lon="-0.46808">
        <ele>23</ele>
        <time>2023-07-18T13:52:14.376+00:00</time>
      </trkpt>
      <trkpt lat="46.31898" lon="-0.46806">
        <ele>23</ele>
        <time>2023-07-18T13:52:18.995+00:00</time>
      </trkpt>
      <trkpt lat="46.319" lon="-0.46801">
        <ele>23</ele>
        <time>2023-07-18T13:52:22.996+00:00</time>
      </trkpt>
      <trkpt lat="46.31903" lon="-0.468">
        <ele>23</ele>
        <time>2023-07-18T13:52:27.501+00:00</time>
      </trkpt>
      <trkpt lat="46.31903" lon="-0.46801">
        <ele>23</ele>
        <time>2023-07-18T13:52:32.007+00:00</time>
      </trkpt>
      <trkpt lat="46.31901" lon="-0.46797">
        <ele>23</ele>
        <time>2023-07-18T13:52:36.011+00:00</time>
      </trkpt>
      <trkpt lat="46.31901" lon="-0.46791">
        <ele>23</ele>
        <time>2023-07-18T13:52:40.515+00:00</time>
      </trkpt>
      <trkpt lat="46.31901" lon="-0.46787">
        <ele>23</ele>
        <time>2023-07-18T13:52:45.019+00:00</time>
      </trkpt>
      <trkpt lat="46.319" lon="-0.46785">
        <ele>23</ele>
        <time>2023-07-18T13:52:49.023+00:00</time>
      </trkpt>
      <trkpt lat="46.31901" lon="-0.46786">
        <ele>23</ele>
        <time>2023-07-18T13:52:53.525+00:00</time>
      </trkpt>
      <trkpt lat="46.31903" lon="-0.46793">
        <ele>23</ele>
        <time>2023-07-18T13:52:58.748+00:00</time>
      </trkpt>
      <trkpt lat="46.31905" lon="-0.46799">
        <ele>23</ele>
        <time>2023-07-18T13:53:03.048+00:00</time>
      </trkpt>
      <trkpt lat="46.31907" lon="-0.46802">
        <ele>23</ele>
        <time>2023-07-18T13:53:06.649+00:00</time>
      </trkpt>
      <trkpt lat="46.31909" lon="-0.46809">
        <ele>23</ele>
        <time>2023-07-18T13:53:11.500+00:00</time>
      </trkpt>
      <trkpt lat="46.3191" lon="-0.46818">
        <ele>23</ele>
        <time>2023-07-18T13:53:15.606+00:00</time>
      </trkpt>
      <trkpt lat="46.31912" lon="-0.46827">
        <ele>22</ele>
        <time>2023-07-18T13:53:20.283+00:00</time>
      </trkpt>
      <trkpt lat="46.31914" lon="-0.46832">
        <ele>22</ele>
        <time>2023-07-18T13:53:24.542+00:00</time>
      </trkpt>
      <trkpt lat="46.31914" lon="-0.46834">
        <ele>22</ele>
        <time>2023-07-18T13:53:28.321+00:00</time>
      </trkpt>
      <trkpt lat="46.31914" lon="-0.46837">
        <ele>22</ele>
        <time>2023-07-18T13:53:32.820+00:00</time>
      </trkpt>
      <trkpt lat="46.31919" lon="-0.4685">
        <ele>22</ele>
        <time>2023-07-18T13:53:37.264+00:00</time>
      </trkpt>
      <trkpt lat="46.31925" lon="-0.46861">
        <ele>22</ele>
        <time>2023-07-18T13:53:41.858+00:00</time>
      </trkpt>
      <trkpt lat="46.31927" lon="-0.46857">
        <ele>22</ele>
        <time>2023-07-18T13:53:46.264+00:00</time>
      </trkpt>
      <trkpt lat="46.3193" lon="-0.46852">
        <ele>22</ele>
        <time>2023-07-18T13:53:50.718+00:00</time>
      </trkpt>
      <trkpt lat="46.31935" lon="-0.46848">
        <ele>23</ele>
        <time>2023-07-18T13:53:54.577+00:00</time>
      </trkpt>
      <trkpt lat="46.31935" lon="-0.46843">
        <ele>23</ele>
        <time>2023-07-18T13:54:44.062+00:00</time>
      </trkpt>
      <trkpt lat="46.31937" lon="-0.46841">
        <ele>23</ele>
        <time>2023-07-18T13:54:48.528+00:00</time>
      </trkpt>
      <trkpt lat="46.31939" lon="-0.46837">
        <ele>23</ele>
        <time>2023-07-18T13:54:52.900+00:00</time>
      </trkpt>
      <trkpt lat="46.3194" lon="-0.46835">
        <ele>23</ele>
        <time>2023-07-18T13:54:57.264+00:00</time>
      </trkpt>
      <trkpt lat="46.31942" lon="-0.46828">
        <ele>23</ele>
        <time>2023-07-18T13:55:01.600+00:00</time>
      </trkpt>
      <trkpt lat="46.31946" lon="-0.46827">
        <ele>23</ele>
        <time>2023-07-18T13:55:06.155+00:00</time>
      </trkpt>
      <trkpt lat="46.31951" lon="-0.46822">
        <ele>23</ele>
        <time>2023-07-18T13:55:10.593+00:00</time>
      </trkpt>
      <trkpt lat="46.31955" lon="-0.46817">
        <ele>23</ele>
        <time>2023-07-18T13:55:14.551+00:00</time>
      </trkpt>
      <trkpt lat="46.31959" lon="-0.46809">
        <ele>24</ele>
        <time>2023-07-18T13:55:19.168+00:00</time>
      </trkpt>
      <trkpt lat="46.31962" lon="-0.46803">
        <ele>24</ele>
        <time>2023-07-18T13:55:23.365+00:00</time>
      </trkpt>
      <trkpt lat="46.31966" lon="-0.468">
        <ele>24</ele>
        <time>2023-07-18T13:55:28.041+00:00</time>
      </trkpt>
      <trkpt lat="46.31969" lon="-0.46796">
        <ele>24</ele>
        <time>2023-07-18T13:55:32.237+00:00</time>
      </trkpt>
      <trkpt lat="46.31972" lon="-0.46792">
        <ele>24</ele>
        <time>2023-07-18T13:55:36.433+00:00</time>
      </trkpt>
      <trkpt lat="46.31977" lon="-0.46785">
        <ele>25</ele>
        <time>2023-07-18T13:55:40.450+00:00</time>
      </trkpt>
      <trkpt lat="46.31982" lon="-0.46777">
        <ele>25</ele>
        <time>2023-07-18T13:55:44.609+00:00</time>
      </trkpt>
      <trkpt lat="46.31987" lon="-0.46771">
        <ele>25</ele>
        <time>2023-07-18T13:55:49.650+00:00</time>
      </trkpt>
      <trkpt lat="46.3199" lon="-0.46767">
        <ele>25</ele>
        <time>2023-07-18T13:55:54.034+00:00</time>
      </trkpt>
      <trkpt lat="46.31993" lon="-0.46762">
        <ele>26</ele>
        <time>2023-07-18T13:55:58.046+00:00</time>
      </trkpt>
      <trkpt lat="46.31997" lon="-0.46757">
        <ele>26</ele>
        <time>2023-07-18T13:56:02.468+00:00</time>
      </trkpt>
      <trkpt lat="46.32" lon="-0.46752">
        <ele>26</ele>
        <time>2023-07-18T13:56:06.421+00:00</time>
      </trkpt>
      <trkpt lat="46.32004" lon="-0.46747">
        <ele>26</ele>
        <time>2023-07-18T13:56:10.959+00:00</time>
      </trkpt>
      <trkpt lat="46.32002" lon="-0.46748">
        <ele>26</ele>
        <time>2023-07-18T13:56:15.398+00:00</time>
      </trkpt>
      <trkpt lat="46.32007" lon="-0.46743">
        <ele>26</ele>
        <time>2023-07-18T13:56:19.958+00:00</time>
      </trkpt>
      <trkpt lat="46.32012" lon="-0.46736">
        <ele>27</ele>
        <time>2023-07-18T13:56:24.374+00:00</time>
      </trkpt>
      <trkpt lat="46.32018" lon="-0.46728">
        <ele>27</ele>
        <time>2023-07-18T13:56:28.870+00:00</time>
      </trkpt>
      <trkpt lat="46.32022" lon="-0.46722">
        <ele>27</ele>
        <time>2023-07-18T13:56:32.825+00:00</time>
      </trkpt>
      <trkpt lat="46.32022" lon="-0.46719">
        <ele>27</ele>
        <time>2023-07-18T13:56:37.264+00:00</time>
      </trkpt>
      <trkpt lat="46.32024" lon="-0.46717">
        <ele>27</ele>
        <time>2023-07-18T13:56:41.264+00:00</time>
      </trkpt>
      <trkpt lat="46.32027" lon="-0.46714">
        <ele>27</ele>
        <time>2023-07-18T13:56:45.740+00:00</time>
      </trkpt>
      <trkpt lat="46.32029" lon="-0.4671">
        <ele>27</ele>
        <time>2023-07-18T13:56:50.212+00:00</time>
      </trkpt>
      <trkpt lat="46.32033" lon="-0.46706">
        <ele>27</ele>
        <time>2023-07-18T13:56:54.869+00:00</time>
      </trkpt>
      <trkpt lat="46.32037" lon="-0.46698">
        <ele>27</ele>
        <time>2023-07-18T13:56:58.767+00:00</time>
      </trkpt>
      <trkpt lat="46.32043" lon="-0.46691">
        <ele>27</ele>
        <time>2023-07-18T13:57:03.444+00:00</time>
      </trkpt>
      <trkpt lat="46.32047" lon="-0.4669">
        <ele>27</ele>
        <time>2023-07-18T13:57:08.100+00:00</time>
      </trkpt>
      <trkpt lat="46.3205" lon="-0.46684">
        <ele>27</ele>
        <time>2023-07-18T13:57:12.459+00:00</time>
      </trkpt>
      <trkpt lat="46.32055" lon="-0.46678">
        <ele>27</ele>
        <time>2023-07-18T13:57:16.938+00:00</time>
      </trkpt>
      <trkpt lat="46.32059" lon="-0.46673">
        <ele>27</ele>
        <time>2023-07-18T13:57:21.394+00:00</time>
      </trkpt>
      <trkpt lat="46.32063" lon="-0.4667">
        <ele>27</ele>
        <time>2023-07-18T13:57:25.773+00:00</time>
      </trkpt>
      <trkpt lat="46.32069" lon="-0.46667">
        <ele>27</ele>
        <time>2023-07-18T13:57:30.311+00:00</time>
      </trkpt>
      <trkpt lat="46.32078" lon="-0.46664">
        <ele>28</ele>
        <time>2023-07-18T13:57:34.264+00:00</time>
      </trkpt>
      <trkpt lat="46.32084" lon="-0.46662">
        <ele>28</ele>
        <time>2023-07-18T13:57:38.927+00:00</time>
      </trkpt>
      <trkpt lat="46.32086" lon="-0.4666">
        <ele>28</ele>
        <time>2023-07-18T13:57:43.244+00:00</time>
      </trkpt>
      <trkpt lat="46.3209" lon="-0.46654">
        <ele>28</ele>
        <time>2023-07-18T13:57:47.580+00:00</time>
      </trkpt>
      <trkpt lat="46.32093" lon="-0.46647">
        <ele>27</ele>
        <time>2023-07-18T13:57:52.196+00:00</time>
      </trkpt>
      <trkpt lat="46.32095" lon="-0.46641">
        <ele>27</ele>
        <time>2023-07-18T13:57:56.392+00:00</time>
      </trkpt>
      <trkpt lat="46.32094" lon="-0.46634">
        <ele>27</ele>
        <time>2023-07-18T13:58:00.829+00:00</time>
      </trkpt>
      <trkpt lat="46.32093" lon="-0.4662">
        <ele>27</ele>
        <time>2023-07-18T13:58:05.246+00:00</time>
      </trkpt>
      <trkpt lat="46.32093" lon="-0.46608">
        <ele>27</ele>
        <time>2023-07-18T13:58:09.264+00:00</time>
      </trkpt>
      <trkpt lat="46.32092" lon="-0.46601">
        <ele>27</ele>
        <time>2023-07-18T13:58:13.959+00:00</time>
      </trkpt>
      <trkpt lat="46.32092" lon="-0.46586">
        <ele>29</ele>
        <time>2023-07-18T13:58:18.820+00:00</time>
      </trkpt>
      <trkpt lat="46.32093" lon="-0.46586">
        <ele>29</ele>
        <time>2023-07-18T13:58:22.797+00:00</time>
      </trkpt>
      <trkpt lat="46.32097" lon="-0.46586">
        <ele>30</ele>
        <time>2023-07-18T13:58:27.797+00:00</time>
      </trkpt>
      <trkpt lat="46.32105" lon="-0.46584">
        <ele>30</ele>
        <time>2023-07-18T13:58:31.695+00:00</time>
      </trkpt>
      <trkpt lat="46.32112" lon="-0.46583">
        <ele>30</ele>
        <time>2023-07-18T13:58:36.251+00:00</time>
      </trkpt>
      <trkpt lat="46.32117" lon="-0.4658">
        <ele>30</ele>
        <time>2023-07-18T13:58:40.889+00:00</time>
      </trkpt>
      <trkpt lat="46.32121" lon="-0.46577">
        <ele>30</ele>
        <time>2023-07-18T13:58:45.246+00:00</time>
      </trkpt>
      <trkpt lat="46.32126" lon="-0.46574">
        <ele>29</ele>
        <time>2023-07-18T13:58:49.203+00:00</time>
      </trkpt>
      <trkpt lat="46.32131" lon="-0.46571">
        <ele>29</ele>
        <time>2023-07-18T13:58:53.924+00:00</time>
      </trkpt>
      <trkpt lat="46.32132" lon="-0.46575">
        <ele>29</ele>
        <time>2023-07-18T13:58:58.019+00:00</time>
      </trkpt>
      <trkpt lat="46.32133" lon="-0.4657">
        <ele>29</ele>
        <time>2023-07-18T13:59:02.516+00:00</time>
      </trkpt>
      <trkpt lat="46.32138" lon="-0.46566">
        <ele>30</ele>
        <time>2023-07-18T13:59:07.805+00:00</time>
      </trkpt>
      <trkpt lat="46.32141" lon="-0.46563">
        <ele>30</ele>
        <time>2023-07-18T13:59:11.871+00:00</time>
      </trkpt>
      <trkpt lat="46.32145" lon="-0.46556">
        <ele>30</ele>
        <time>2023-07-18T13:59:16.371+00:00</time>
      </trkpt>
      <trkpt lat="46.32151" lon="-0.46548">
        <ele>30</ele>
        <time>2023-07-18T13:59:21.031+00:00</time>
      </trkpt>
      <trkpt lat="46.32156" lon="-0.46545">
        <ele>29</ele>
        <time>2023-07-18T13:59:25.180+00:00</time>
      </trkpt>
      <trkpt lat="46.32158" lon="-0.46541">
        <ele>30</ele>
        <time>2023-07-18T13:59:29.603+00:00</time>
      </trkpt>
      <trkpt lat="46.32158" lon="-0.46534">
        <ele>30</ele>
        <time>2023-07-18T13:59:34.399+00:00</time>
      </trkpt>
      <trkpt lat="46.32146" lon="-0.46518">
        <ele>31</ele>
        <time>2023-07-18T13:59:38.795+00:00</time>
      </trkpt>
      <trkpt lat="46.32144" lon="-0.46509">
        <ele>31</ele>
        <time>2023-07-18T13:59:42.813+00:00</time>
      </trkpt>
      <trkpt lat="46.32143" lon="-0.46505">
        <ele>31</ele>
        <time>2023-07-18T13:59:47.443+00:00</time>
      </trkpt>
      <trkpt lat="46.32146" lon="-0.46502">
        <ele>31</ele>
        <time>2023-07-18T13:59:51.567+00:00</time>
      </trkpt>
      <trkpt lat="46.3215" lon="-0.465">
        <ele>31</ele>
        <time>2023-07-18T13:59:55.564+00:00</time>
      </trkpt>
      <trkpt lat="46.32154" lon="-0.46499">
        <ele>31</ele>
        <time>2023-07-18T14:00:00.099+00:00</time>
      </trkpt>
      <trkpt lat="46.32159" lon="-0.46495">
        <ele>31</ele>
        <time>2023-07-18T14:00:04.600+00:00</time>
      </trkpt>
      <trkpt lat="46.32162" lon="-0.46493">
        <ele>31</ele>
        <time>2023-07-18T14:00:08.931+00:00</time>
      </trkpt>
      <trkpt lat="46.32164" lon="-0.46489">
        <ele>31</ele>
        <time>2023-07-18T14:00:13.484+00:00</time>
      </trkpt>
      <trkpt lat="46.32167" lon="-0.46484">
        <ele>31</ele>
        <time>2023-07-18T14:00:17.440+00:00</time>
      </trkpt>
      <trkpt lat="46.32171" lon="-0.46477">
        <ele>31</ele>
        <time>2023-07-18T14:00:22.059+00:00</time>
      </trkpt>
      <trkpt lat="46.32177" lon="-0.46472">
        <ele>31</ele>
        <time>2023-07-18T14:00:26.557+00:00</time>
      </trkpt>
      <trkpt lat="46.32183" lon="-0.46468">
        <ele>31</ele>
        <time>2023-07-18T14:00:30.552+00:00</time>
      </trkpt>
      <trkpt lat="46.3219" lon="-0.46464">
        <ele>31</ele>
        <time>2023-07-18T14:00:35.008+00:00</time>
      </trkpt>
      <trkpt lat="46.32195" lon="-0.4646">
        <ele>31</ele>
        <time>2023-07-18T14:00:39.026+00:00</time>
      </trkpt>
      <trkpt lat="46.32202" lon="-0.46454">
        <ele>31</ele>
        <time>2023-07-18T14:00:44.006+00:00</time>
      </trkpt>
      <trkpt lat="46.32207" lon="-0.4645">
        <ele>31</ele>
        <time>2023-07-18T14:00:47.921+00:00</time>
      </trkpt>
      <trkpt lat="46.32212" lon="-0.46445">
        <ele>32</ele>
        <time>2023-07-18T14:00:52.261+00:00</time>
      </trkpt>
      <trkpt lat="46.32217" lon="-0.4644">
        <ele>32</ele>
        <time>2023-07-18T14:00:56.620+00:00</time>
      </trkpt>
      <trkpt lat="46.32223" lon="-0.46434">
        <ele>32</ele>
        <time>2023-07-18T14:01:00.394+00:00</time>
      </trkpt>
      <trkpt lat="46.32229" lon="-0.46428">
        <ele>33</ele>
        <time>2023-07-18T14:01:04.910+00:00</time>
      </trkpt>
      <trkpt lat="46.3223" lon="-0.46427">
        <ele>33</ele>
        <time>2023-07-18T14:01:09.359+00:00</time>
      </trkpt>
      <trkpt lat="46.32231" lon="-0.46428">
        <ele>33</ele>
        <time>2023-07-18T14:01:13.306+00:00</time>
      </trkpt>
      <trkpt lat="46.32235" lon="-0.46427">
        <ele>33</ele>
        <time>2023-07-18T14:01:17.746+00:00</time>
      </trkpt>
      <trkpt lat="46.3224" lon="-0.46428">
        <ele>33</ele>
        <time>2023-07-18T14:01:21.703+00:00</time>
      </trkpt>
      <trkpt lat="46.32244" lon="-0.46431">
        <ele>32</ele>
        <time>2023-07-18T14:01:26.264+00:00</time>
      </trkpt>
      <trkpt lat="46.32245" lon="-0.46438">
        <ele>32</ele>
        <time>2023-07-18T14:01:30.976+00:00</time>
      </trkpt>
      <trkpt lat="46.32245" lon="-0.46446">
        <ele>32</ele>
        <time>2023-07-18T14:01:35.533+00:00</time>
      </trkpt>
      <trkpt lat="46.32246" lon="-0.46455">
        <ele>32</ele>
        <time>2023-07-18T14:01:39.610+00:00</time>
      </trkpt>
      <trkpt lat="46.32246" lon="-0.46463">
        <ele>30</ele>
        <time>2023-07-18T14:01:43.669+00:00</time>
      </trkpt>
      <trkpt lat="46.32247" lon="-0.46466">
        <ele>30</ele>
        <time>2023-07-18T14:01:47.626+00:00</time>
      </trkpt>
      <trkpt lat="46.32247" lon="-0.4647">
        <ele>30</ele>
        <time>2023-07-18T14:01:52.264+00:00</time>
      </trkpt>
      <trkpt lat="46.32248" lon="-0.46473">
        <ele>30</ele>
        <time>2023-07-18T14:01:56.799+00:00</time>
      </trkpt>
      <trkpt lat="46.32249" lon="-0.46479">
        <ele>30</ele>
        <time>2023-07-18T14:02:00.995+00:00</time>
      </trkpt>
      <trkpt lat="46.32251" lon="-0.46487">
        <ele>31</ele>
        <time>2023-07-18T14:02:05.552+00:00</time>
      </trkpt>
      <trkpt lat="46.32253" lon="-0.46495">
        <ele>31</ele>
        <time>2023-07-18T14:02:09.509+00:00</time>
      </trkpt>
      <trkpt lat="46.32256" lon="-0.4651">
        <ele>31</ele>
        <time>2023-07-18T14:02:14.095+00:00</time>
      </trkpt>
      <trkpt lat="46.3226" lon="-0.46534">
        <ele>32</ele>
        <time>2023-07-18T14:02:23.146+00:00</time>
      </trkpt>
      <trkpt lat="46.32264" lon="-0.46544">
        <ele>33</ele>
        <time>2023-07-18T14:02:27.463+00:00</time>
      </trkpt>
      <trkpt lat="46.32267" lon="-0.4656">
        <ele>33</ele>
        <time>2023-07-18T14:02:54.793+00:00</time>
      </trkpt>
      <trkpt lat="46.32264" lon="-0.46567">
        <ele>33</ele>
        <time>2023-07-18T14:02:59.306+00:00</time>
      </trkpt>
      <trkpt lat="46.32262" lon="-0.46571">
        <ele>34</ele>
        <time>2023-07-18T14:03:03.815+00:00</time>
      </trkpt>
      <trkpt lat="46.32264" lon="-0.46578">
        <ele>34</ele>
        <time>2023-07-18T14:03:08.323+00:00</time>
      </trkpt>
      <trkpt lat="46.32263" lon="-0.46582">
        <ele>34</ele>
        <time>2023-07-18T14:03:12.330+00:00</time>
      </trkpt>
      <trkpt lat="46.32281" lon="-0.46597">
        <ele>32</ele>
        <time>2023-07-18T14:07:45.063+00:00</time>
      </trkpt>
      <trkpt lat="46.32262" lon="-0.46619">
        <ele>33</ele>
        <time>2023-07-18T14:07:49.168+00:00</time>
      </trkpt>
      <trkpt lat="46.32254" lon="-0.4662">
        <ele>33</ele>
        <time>2023-07-18T14:07:53.174+00:00</time>
      </trkpt>
      <trkpt lat="46.32251" lon="-0.46618">
        <ele>33</ele>
        <time>2023-07-18T14:07:57.179+00:00</time>
      </trkpt>
      <trkpt lat="46.32251" lon="-0.46622">
        <ele>33</ele>
        <time>2023-07-18T14:08:01.685+00:00</time>
      </trkpt>
      <trkpt lat="46.32252" lon="-0.46625">
        <ele>33</ele>
        <time>2023-07-18T14:08:06.690+00:00</time>
      </trkpt>
      <trkpt lat="46.32251" lon="-0.4663">
        <ele>30</ele>
        <time>2023-07-18T14:08:11.194+00:00</time>
      </trkpt>
      <trkpt lat="46.32251" lon="-0.46634">
        <ele>30</ele>
        <time>2023-07-18T14:08:15.698+00:00</time>
      </trkpt>
      <trkpt lat="46.3225" lon="-0.46635">
        <ele>30</ele>
        <time>2023-07-18T14:08:19.701+00:00</time>
      </trkpt>
      <trkpt lat="46.3225" lon="-0.46639">
        <ele>30</ele>
        <time>2023-07-18T14:08:24.206+00:00</time>
      </trkpt>
      <trkpt lat="46.32249" lon="-0.46649">
        <ele>30</ele>
        <time>2023-07-18T14:08:28.212+00:00</time>
      </trkpt>
      <trkpt lat="46.32248" lon="-0.46656">
        <ele>27</ele>
        <time>2023-07-18T14:08:32.718+00:00</time>
      </trkpt>
      <trkpt lat="46.32247" lon="-0.46662">
        <ele>27</ele>
        <time>2023-07-18T14:08:36.724+00:00</time>
      </trkpt>
      <trkpt lat="46.32247" lon="-0.46669">
        <ele>27</ele>
        <time>2023-07-18T14:08:41.231+00:00</time>
      </trkpt>
      <trkpt lat="46.32246" lon="-0.46673">
        <ele>27</ele>
        <time>2023-07-18T14:08:45.735+00:00</time>
      </trkpt>
      <trkpt lat="46.32248" lon="-0.46683">
        <ele>26</ele>
        <time>2023-07-18T14:08:50.240+00:00</time>
      </trkpt>
      <trkpt lat="46.32254" lon="-0.46688">
        <ele>26</ele>
        <time>2023-07-18T14:08:54.745+00:00</time>
      </trkpt>
      <trkpt lat="46.32258" lon="-0.46688">
        <ele>26</ele>
        <time>2023-07-18T14:08:58.748+00:00</time>
      </trkpt>
      <trkpt lat="46.32262" lon="-0.46691">
        <ele>26</ele>
        <time>2023-07-18T14:09:03.270+00:00</time>
      </trkpt>
      <trkpt lat="46.32263" lon="-0.467">
        <ele>26</ele>
        <time>2023-07-18T14:09:07.383+00:00</time>
      </trkpt>
      <trkpt lat="46.32266" lon="-0.46707">
        <ele>27</ele>
        <time>2023-07-18T14:09:11.632+00:00</time>
      </trkpt>
      <trkpt lat="46.32272" lon="-0.4671">
        <ele>27</ele>
        <time>2023-07-18T14:09:15.932+00:00</time>
      </trkpt>
      <trkpt lat="46.32278" lon="-0.46712">
        <ele>27</ele>
        <time>2023-07-18T14:09:20.496+00:00</time>
      </trkpt>
      <trkpt lat="46.32282" lon="-0.46713">
        <ele>27</ele>
        <time>2023-07-18T14:09:24.601+00:00</time>
      </trkpt>
      <trkpt lat="46.32285" lon="-0.46714">
        <ele>27</ele>
        <time>2023-07-18T14:09:29.106+00:00</time>
      </trkpt>
      <trkpt lat="46.32289" lon="-0.46714">
        <ele>27</ele>
        <time>2023-07-18T14:09:33.711+00:00</time>
      </trkpt>
      <trkpt lat="46.32292" lon="-0.46716">
        <ele>28</ele>
        <time>2023-07-18T14:09:37.714+00:00</time>
      </trkpt>
      <trkpt lat="46.32294" lon="-0.46717">
        <ele>28</ele>
        <time>2023-07-18T14:09:42.738+00:00</time>
      </trkpt>
      <trkpt lat="46.32296" lon="-0.46718">
        <ele>28</ele>
        <time>2023-07-18T14:09:46.740+00:00</time>
      </trkpt>
      <trkpt lat="46.32299" lon="-0.46718">
        <ele>28</ele>
        <time>2023-07-18T14:09:51.343+00:00</time>
      </trkpt>
      <trkpt lat="46.32304" lon="-0.46717">
        <ele>28</ele>
        <time>2023-07-18T14:09:55.446+00:00</time>
      </trkpt>
      <trkpt lat="46.3231" lon="-0.46714">
        <ele>28</ele>
        <time>2023-07-18T14:09:59.588+00:00</time>
      </trkpt>
      <trkpt lat="46.32309" lon="-0.46714">
        <ele>28</ele>
        <time>2023-07-18T14:10:03.848+00:00</time>
      </trkpt>
      <trkpt lat="46.32312" lon="-0.46718">
        <ele>28</ele>
        <time>2023-07-18T14:10:08.353+00:00</time>
      </trkpt>
      <trkpt lat="46.32315" lon="-0.46721">
        <ele>28</ele>
        <time>2023-07-18T14:10:12.895+00:00</time>
      </trkpt>
      <trkpt lat="46.32319" lon="-0.46724">
        <ele>28</ele>
        <time>2023-07-18T14:10:16.997+00:00</time>
      </trkpt>
      <trkpt lat="46.32325" lon="-0.46728">
        <ele>28</ele>
        <time>2023-07-18T14:10:21.021+00:00</time>
      </trkpt>
      <trkpt lat="46.32331" lon="-0.46731">
        <ele>28</ele>
        <time>2023-07-18T14:10:25.161+00:00</time>
      </trkpt>
      <trkpt lat="46.32335" lon="-0.46733">
        <ele>28</ele>
        <time>2023-07-18T14:10:29.703+00:00</time>
      </trkpt>
      <trkpt lat="46.3234" lon="-0.46736">
        <ele>28</ele>
        <time>2023-07-18T14:10:33.864+00:00</time>
      </trkpt>
      <trkpt lat="46.32345" lon="-0.46739">
        <ele>27</ele>
        <time>2023-07-18T14:10:38.045+00:00</time>
      </trkpt>
      <trkpt lat="46.32348" lon="-0.46742">
        <ele>24</ele>
        <time>2023-07-18T14:10:42.219+00:00</time>
      </trkpt>
      <trkpt lat="46.32352" lon="-0.46745">
        <ele>24</ele>
        <time>2023-07-18T14:10:46.725+00:00</time>
      </trkpt>
      <trkpt lat="46.32356" lon="-0.46748">
        <ele>24</ele>
        <time>2023-07-18T14:10:51.146+00:00</time>
      </trkpt>
      <trkpt lat="46.32358" lon="-0.46745">
        <ele>24</ele>
        <time>2023-07-18T14:10:55.228+00:00</time>
      </trkpt>
      <trkpt lat="46.32362" lon="-0.46745">
        <ele>24</ele>
        <time>2023-07-18T14:10:59.231+00:00</time>
      </trkpt>
      <trkpt lat="46.32369" lon="-0.4675">
        <ele>24</ele>
        <time>2023-07-18T14:11:03.735+00:00</time>
      </trkpt>
      <trkpt lat="46.32373" lon="-0.46755">
        <ele>24</ele>
        <time>2023-07-18T14:11:08.341+00:00</time>
      </trkpt>
      <trkpt lat="46.32377" lon="-0.46759">
        <ele>20</ele>
        <time>2023-07-18T14:11:12.945+00:00</time>
      </trkpt>
      <trkpt lat="46.32381" lon="-0.46761">
        <ele>20</ele>
        <time>2023-07-18T14:11:17.049+00:00</time>
      </trkpt>
      <trkpt lat="46.32388" lon="-0.46765">
        <ele>19</ele>
        <time>2023-07-18T14:11:21.651+00:00</time>
      </trkpt>
      <trkpt lat="46.32392" lon="-0.46767">
        <ele>19</ele>
        <time>2023-07-18T14:11:25.856+00:00</time>
      </trkpt>
      <trkpt lat="46.32394" lon="-0.46768">
        <ele>19</ele>
        <time>2023-07-18T14:11:30.361+00:00</time>
      </trkpt>
      <trkpt lat="46.32395" lon="-0.46768">
        <ele>19</ele>
        <time>2023-07-18T14:11:34.964+00:00</time>
      </trkpt>
      <trkpt lat="46.32401" lon="-0.46768">
        <ele>19</ele>
        <time>2023-07-18T14:11:39.067+00:00</time>
      </trkpt>
      <trkpt lat="46.32407" lon="-0.4677">
        <ele>14</ele>
        <time>2023-07-18T14:11:43.610+00:00</time>
      </trkpt>
      <trkpt lat="46.32417" lon="-0.46769">
        <ele>14</ele>
        <time>2023-07-18T14:11:47.714+00:00</time>
      </trkpt>
      <trkpt lat="46.32423" lon="-0.46764">
        <ele>16</ele>
        <time>2023-07-18T14:11:51.719+00:00</time>
      </trkpt>
      <trkpt lat="46.32427" lon="-0.46764">
        <ele>14</ele>
        <time>2023-07-18T14:11:56.723+00:00</time>
      </trkpt>
      <trkpt lat="46.32426" lon="-0.46762">
        <ele>16</ele>
        <time>2023-07-18T14:12:00.825+00:00</time>
      </trkpt>
      <trkpt lat="46.32427" lon="-0.46761">
        <ele>16</ele>
        <time>2023-07-18T14:12:03.827+00:00</time>
      </trkpt>
      <trkpt lat="46.32435" lon="-0.46759">
        <ele>13</ele>
        <time>2023-07-18T14:12:10.856+00:00</time>
      </trkpt>
      <trkpt lat="46.32435" lon="-0.46758">
        <ele>13</ele>
        <time>2023-07-18T14:12:15.878+00:00</time>
      </trkpt>
      <trkpt lat="46.32437" lon="-0.46752">
        <ele>13</ele>
        <time>2023-07-18T14:12:20.399+00:00</time>
      </trkpt>
      <trkpt lat="46.32442" lon="-0.46752">
        <ele>13</ele>
        <time>2023-07-18T14:12:38.473+00:00</time>
      </trkpt>
      <trkpt lat="46.32444" lon="-0.46748">
        <ele>13</ele>
        <time>2023-07-18T14:12:43.990+00:00</time>
      </trkpt>
      <trkpt lat="46.32447" lon="-0.46744">
        <ele>13</ele>
        <time>2023-07-18T14:12:47.999+00:00</time>
      </trkpt>
      <trkpt lat="46.32449" lon="-0.46739">
        <ele>13</ele>
        <time>2023-07-18T14:12:52.005+00:00</time>
      </trkpt>
      <trkpt lat="46.32451" lon="-0.46733">
        <ele>16</ele>
        <time>2023-07-18T14:12:56.511+00:00</time>
      </trkpt>
      <trkpt lat="46.32453" lon="-0.46727">
        <ele>16</ele>
        <time>2023-07-18T14:13:00.515+00:00</time>
      </trkpt>
      <trkpt lat="46.32456" lon="-0.46722">
        <ele>16</ele>
        <time>2023-07-18T14:13:05.520+00:00</time>
      </trkpt>
      <trkpt lat="46.32462" lon="-0.4672">
        <ele>14</ele>
        <time>2023-07-18T14:13:09.524+00:00</time>
      </trkpt>
      <trkpt lat="46.32465" lon="-0.46719">
        <ele>14</ele>
        <time>2023-07-18T14:13:13.904+00:00</time>
      </trkpt>
      <trkpt lat="46.32467" lon="-0.46713">
        <ele>14</ele>
        <time>2023-07-18T14:13:18.085+00:00</time>
      </trkpt>
      <trkpt lat="46.3247" lon="-0.46706">
        <ele>17</ele>
        <time>2023-07-18T14:13:22.504+00:00</time>
      </trkpt>
      <trkpt lat="46.32472" lon="-0.46699">
        <ele>17</ele>
        <time>2023-07-18T14:13:26.586+00:00</time>
      </trkpt>
      <trkpt lat="46.32475" lon="-0.46692">
        <ele>17</ele>
        <time>2023-07-18T14:13:30.565+00:00</time>
      </trkpt>
      <trkpt lat="46.32476" lon="-0.46681">
        <ele>17</ele>
        <time>2023-07-18T14:14:01.595+00:00</time>
      </trkpt>
      <trkpt lat="46.3248" lon="-0.46673">
        <ele>20</ele>
        <time>2023-07-18T14:14:05.595+00:00</time>
      </trkpt>
      <trkpt lat="46.32493" lon="-0.46648">
        <ele>15</ele>
        <time>2023-07-18T14:14:10.975+00:00</time>
      </trkpt>
      <trkpt lat="46.32496" lon="-0.46642">
        <ele>15</ele>
        <time>2023-07-18T14:14:15.018+00:00</time>
      </trkpt>
      <trkpt lat="46.32502" lon="-0.46638">
        <ele>15</ele>
        <time>2023-07-18T14:14:19.122+00:00</time>
      </trkpt>
      <trkpt lat="46.32508" lon="-0.46633">
        <ele>15</ele>
        <time>2023-07-18T14:14:31.635+00:00</time>
      </trkpt>
      <trkpt lat="46.3251" lon="-0.46633">
        <ele>15</ele>
        <time>2023-07-18T14:14:37.660+00:00</time>
      </trkpt>
      <trkpt lat="46.3251" lon="-0.46633">
        <ele>15</ele>
        <time>2023-07-18T14:14:41.673+00:00</time>
      </trkpt>
      <trkpt lat="46.3251" lon="-0.46629">
        <ele>15</ele>
        <time>2023-07-18T14:14:46.188+00:00</time>
      </trkpt>
      <trkpt lat="46.32515" lon="-0.4662">
        <ele>16</ele>
        <time>2023-07-18T14:14:50.698+00:00</time>
      </trkpt>
      <trkpt lat="46.32519" lon="-0.46613">
        <ele>16</ele>
        <time>2023-07-18T14:14:54.907+00:00</time>
      </trkpt>
      <trkpt lat="46.32523" lon="-0.46609">
        <ele>16</ele>
        <time>2023-07-18T14:14:58.510+00:00</time>
      </trkpt>
      <trkpt lat="46.32527" lon="-0.46603">
        <ele>16</ele>
        <time>2023-07-18T14:15:03.514+00:00</time>
      </trkpt>
      <trkpt lat="46.3253" lon="-0.46597">
        <ele>18</ele>
        <time>2023-07-18T14:15:07.619+00:00</time>
      </trkpt>
      <trkpt lat="46.32532" lon="-0.46592">
        <ele>18</ele>
        <time>2023-07-18T14:15:45.832+00:00</time>
      </trkpt>
      <trkpt lat="46.32534" lon="-0.46586">
        <ele>18</ele>
        <time>2023-07-18T14:15:49.854+00:00</time>
      </trkpt>
      <trkpt lat="46.32536" lon="-0.46582">
        <ele>18</ele>
        <time>2023-07-18T14:15:52.856+00:00</time>
      </trkpt>
      <trkpt lat="46.32537" lon="-0.46577">
        <ele>18</ele>
        <time>2023-07-18T14:16:00.908+00:00</time>
      </trkpt>
      <trkpt lat="46.32534" lon="-0.46576">
        <ele>18</ele>
        <time>2023-07-18T14:16:04.924+00:00</time>
      </trkpt>
      <trkpt lat="46.32531" lon="-0.46565">
        <ele>20</ele>
        <time>2023-07-18T14:16:18.474+00:00</time>
      </trkpt>
      <trkpt lat="46.32528" lon="-0.46565">
        <ele>20</ele>
        <time>2023-07-18T14:16:23.091+00:00</time>
      </trkpt>
      <trkpt lat="46.32525" lon="-0.4656">
        <ele>20</ele>
        <time>2023-07-18T14:16:27.608+00:00</time>
      </trkpt>
      <trkpt lat="46.32526" lon="-0.46557">
        <ele>20</ele>
        <time>2023-07-18T14:16:31.623+00:00</time>
      </trkpt>
      <trkpt lat="46.32525" lon="-0.46556">
        <ele>20</ele>
        <time>2023-07-18T14:16:36.646+00:00</time>
      </trkpt>
      <trkpt lat="46.32523" lon="-0.46553">
        <ele>20</ele>
        <time>2023-07-18T14:16:40.664+00:00</time>
      </trkpt>
      <trkpt lat="46.32521" lon="-0.46547">
        <ele>20</ele>
        <time>2023-07-18T14:16:45.183+00:00</time>
      </trkpt>
      <trkpt lat="46.32519" lon="-0.46544">
        <ele>20</ele>
        <time>2023-07-18T14:16:49.199+00:00</time>
      </trkpt>
      <trkpt lat="46.32518" lon="-0.4654">
        <ele>20</ele>
        <time>2023-07-18T14:16:53.717+00:00</time>
      </trkpt>
      <trkpt lat="46.32516" lon="-0.46537">
        <ele>20</ele>
        <time>2023-07-18T14:16:57.833+00:00</time>
      </trkpt>
      <trkpt lat="46.32514" lon="-0.46533">
        <ele>20</ele>
        <time>2023-07-18T14:17:01.849+00:00</time>
      </trkpt>
      <trkpt lat="46.32512" lon="-0.46531">
        <ele>23</ele>
        <time>2023-07-18T14:17:05.865+00:00</time>
      </trkpt>
      <trkpt lat="46.3251" lon="-0.46529">
        <ele>23</ele>
        <time>2023-07-18T14:17:09.882+00:00</time>
      </trkpt>
      <trkpt lat="46.32508" lon="-0.46525">
        <ele>23</ele>
        <time>2023-07-18T14:17:14.902+00:00</time>
      </trkpt>
      <trkpt lat="46.32506" lon="-0.46521">
        <ele>23</ele>
        <time>2023-07-18T14:17:18.917+00:00</time>
      </trkpt>
      <trkpt lat="46.32505" lon="-0.46515">
        <ele>23</ele>
        <time>2023-07-18T14:17:22.934+00:00</time>
      </trkpt>
      <trkpt lat="46.32505" lon="-0.46513">
        <ele>23</ele>
        <time>2023-07-18T14:17:26.949+00:00</time>
      </trkpt>
      <trkpt lat="46.32504" lon="-0.46512">
        <ele>23</ele>
        <time>2023-07-18T14:17:31.469+00:00</time>
      </trkpt>
      <trkpt lat="46.32502" lon="-0.46509">
        <ele>23</ele>
        <time>2023-07-18T14:17:36.005+00:00</time>
      </trkpt>
      <trkpt lat="46.32502" lon="-0.46487">
        <ele>23</ele>
        <time>2023-07-18T14:18:55.684+00:00</time>
      </trkpt>
      <trkpt lat="46.32503" lon="-0.46486">
        <ele>23</ele>
        <time>2023-07-18T14:18:59.696+00:00</time>
      </trkpt>
      <trkpt lat="46.32502" lon="-0.46485">
        <ele>23</ele>
        <time>2023-07-18T14:19:04.714+00:00</time>
      </trkpt>
      <trkpt lat="46.32501" lon="-0.4648">
        <ele>23</ele>
        <time>2023-07-18T14:19:09.733+00:00</time>
      </trkpt>
      <trkpt lat="46.32507" lon="-0.46475">
        <ele>23</ele>
        <time>2023-07-18T14:19:14.349+00:00</time>
      </trkpt>
      <trkpt lat="46.32511" lon="-0.46469">
        <ele>23</ele>
        <time>2023-07-18T14:20:14.494+00:00</time>
      </trkpt>
      <trkpt lat="46.32512" lon="-0.46466">
        <ele>23</ele>
        <time>2023-07-18T14:20:18.510+00:00</time>
      </trkpt>
      <trkpt lat="46.32512" lon="-0.46463">
        <ele>23</ele>
        <time>2023-07-18T14:20:22.526+00:00</time>
      </trkpt>
      <trkpt lat="46.32515" lon="-0.46458">
        <ele>19</ele>
        <time>2023-07-18T14:20:27.262+00:00</time>
      </trkpt>
      <trkpt lat="46.32522" lon="-0.46455">
        <ele>19</ele>
        <time>2023-07-18T14:20:31.366+00:00</time>
      </trkpt>
      <trkpt lat="46.32525" lon="-0.46452">
        <ele>19</ele>
        <time>2023-07-18T14:20:35.885+00:00</time>
      </trkpt>
      <trkpt lat="46.3253" lon="-0.46449">
        <ele>19</ele>
        <time>2023-07-18T14:20:40.403+00:00</time>
      </trkpt>
      <trkpt lat="46.32535" lon="-0.46444">
        <ele>19</ele>
        <time>2023-07-18T14:20:44.923+00:00</time>
      </trkpt>
      <trkpt lat="46.32539" lon="-0.46441">
        <ele>19</ele>
        <time>2023-07-18T14:20:48.940+00:00</time>
      </trkpt>
      <trkpt lat="46.32549" lon="-0.46439">
        <ele>17</ele>
        <time>2023-07-18T14:21:36.986+00:00</time>
      </trkpt>
      <trkpt lat="46.32552" lon="-0.46445">
        <ele>17</ele>
        <time>2023-07-18T14:21:42.009+00:00</time>
      </trkpt>
      <trkpt lat="46.32556" lon="-0.4645">
        <ele>17</ele>
        <time>2023-07-18T14:21:46.120+00:00</time>
      </trkpt>
      <trkpt lat="46.32558" lon="-0.46454">
        <ele>17</ele>
        <time>2023-07-18T14:21:50.134+00:00</time>
      </trkpt>
      <trkpt lat="46.3256" lon="-0.46456">
        <ele>17</ele>
        <time>2023-07-18T14:21:54.654+00:00</time>
      </trkpt>
      <trkpt lat="46.32561" lon="-0.46454">
        <ele>17</ele>
        <time>2023-07-18T14:22:03.698+00:00</time>
      </trkpt>
      <trkpt lat="46.3256" lon="-0.46453">
        <ele>17</ele>
        <time>2023-07-18T14:22:08.221+00:00</time>
      </trkpt>
      <trkpt lat="46.3256" lon="-0.46451">
        <ele>17</ele>
        <time>2023-07-18T14:22:12.741+00:00</time>
      </trkpt>
      <trkpt lat="46.32563" lon="-0.46447">
        <ele>17</ele>
        <time>2023-07-18T14:22:16.760+00:00</time>
      </trkpt>
      <trkpt lat="46.32565" lon="-0.46442">
        <ele>17</ele>
        <time>2023-07-18T14:22:21.280+00:00</time>
      </trkpt>
      <trkpt lat="46.32573" lon="-0.46431">
        <ele>19</ele>
        <time>2023-07-18T14:22:30.823+00:00</time>
      </trkpt>
      <trkpt lat="46.32573" lon="-0.46428">
        <ele>20</ele>
        <time>2023-07-18T14:22:34.841+00:00</time>
      </trkpt>
      <trkpt lat="46.32573" lon="-0.46425">
        <ele>20</ele>
        <time>2023-07-18T14:22:38.859+00:00</time>
      </trkpt>
      <trkpt lat="46.32572" lon="-0.46422">
        <ele>20</ele>
        <time>2023-07-18T14:22:42.876+00:00</time>
      </trkpt>
      <trkpt lat="46.32569" lon="-0.4642">
        <ele>19</ele>
        <time>2023-07-18T14:22:47.396+00:00</time>
      </trkpt>
      <trkpt lat="46.32566" lon="-0.46417">
        <ele>19</ele>
        <time>2023-07-18T14:22:51.416+00:00</time>
      </trkpt>
      <trkpt lat="46.32564" lon="-0.46414">
        <ele>19</ele>
        <time>2023-07-18T14:22:55.940+00:00</time>
      </trkpt>
      <trkpt lat="46.32563" lon="-0.46411">
        <ele>19</ele>
        <time>2023-07-18T14:22:59.553+00:00</time>
      </trkpt>
      <trkpt lat="46.32561" lon="-0.46408">
        <ele>19</ele>
        <time>2023-07-18T14:23:04.075+00:00</time>
      </trkpt>
      <trkpt lat="46.32559" lon="-0.46405">
        <ele>19</ele>
        <time>2023-07-18T14:23:08.093+00:00</time>
      </trkpt>
      <trkpt lat="46.32545" lon="-0.46421">
        <ele>19</ele>
        <time>2023-07-18T14:24:46.759+00:00</time>
      </trkpt>
      <trkpt lat="46.32545" lon="-0.46422">
        <ele>19</ele>
        <time>2023-07-18T14:24:50.877+00:00</time>
      </trkpt>
      <trkpt lat="46.32546" lon="-0.46424">
        <ele>19</ele>
        <time>2023-07-18T14:24:55.397+00:00</time>
      </trkpt>
      <trkpt lat="46.32545" lon="-0.46426">
        <ele>19</ele>
        <time>2023-07-18T14:24:59.508+00:00</time>
      </trkpt>
      <trkpt lat="46.32545" lon="-0.46428">
        <ele>19</ele>
        <time>2023-07-18T14:25:03.517+00:00</time>
      </trkpt>
      <trkpt lat="46.32544" lon="-0.46429">
        <ele>19</ele>
        <time>2023-07-18T14:25:07.524+00:00</time>
      </trkpt>
      <trkpt lat="46.32545" lon="-0.46427">
        <ele>19</ele>
        <time>2023-07-18T14:25:12.030+00:00</time>
      </trkpt>
      <trkpt lat="46.32544" lon="-0.46425">
        <ele>19</ele>
        <time>2023-07-18T14:25:16.537+00:00</time>
      </trkpt>
      <trkpt lat="46.32542" lon="-0.46421">
        <ele>19</ele>
        <time>2023-07-18T14:25:21.143+00:00</time>
      </trkpt>
      <trkpt lat="46.3254" lon="-0.46417">
        <ele>20</ele>
        <time>2023-07-18T14:25:25.147+00:00</time>
      </trkpt>
      <trkpt lat="46.32538" lon="-0.46412">
        <ele>20</ele>
        <time>2023-07-18T14:25:29.652+00:00</time>
      </trkpt>
      <trkpt lat="46.32535" lon="-0.46407">
        <ele>20</ele>
        <time>2023-07-18T14:25:33.658+00:00</time>
      </trkpt>
      <trkpt lat="46.32534" lon="-0.46403">
        <ele>22</ele>
        <time>2023-07-18T14:25:37.663+00:00</time>
      </trkpt>
      <trkpt lat="46.32533" lon="-0.46401">
        <ele>22</ele>
        <time>2023-07-18T14:25:42.669+00:00</time>
      </trkpt>
      <trkpt lat="46.32531" lon="-0.46397">
        <ele>22</ele>
        <time>2023-07-18T14:25:46.674+00:00</time>
      </trkpt>
      <trkpt lat="46.3253" lon="-0.46393">
        <ele>22</ele>
        <time>2023-07-18T14:25:50.778+00:00</time>
      </trkpt>
      <trkpt lat="46.32528" lon="-0.46388">
        <ele>22</ele>
        <time>2023-07-18T14:25:55.282+00:00</time>
      </trkpt>
      <trkpt lat="46.32526" lon="-0.46384">
        <ele>22</ele>
        <time>2023-07-18T14:25:59.784+00:00</time>
      </trkpt>
      <trkpt lat="46.32522" lon="-0.46346">
        <ele>22</ele>
        <time>2023-07-18T14:26:34.596+00:00</time>
      </trkpt>
      <trkpt lat="46.32522" lon="-0.46344">
        <ele>22</ele>
        <time>2023-07-18T14:26:38.612+00:00</time>
      </trkpt>
      <trkpt lat="46.32528" lon="-0.46341">
        <ele>22</ele>
        <time>2023-07-18T14:26:42.629+00:00</time>
      </trkpt>
      <trkpt lat="46.32531" lon="-0.46339">
        <ele>22</ele>
        <time>2023-07-18T14:26:47.150+00:00</time>
      </trkpt>
      <trkpt lat="46.32531" lon="-0.46338">
        <ele>22</ele>
        <time>2023-07-18T14:26:51.672+00:00</time>
      </trkpt>
      <trkpt lat="46.32532" lon="-0.46333">
        <ele>22</ele>
        <time>2023-07-18T14:26:55.691+00:00</time>
      </trkpt>
      <trkpt lat="46.32531" lon="-0.46329">
        <ele>22</ele>
        <time>2023-07-18T14:26:59.709+00:00</time>
      </trkpt>
      <trkpt lat="46.32534" lon="-0.46327">
        <ele>22</ele>
        <time>2023-07-18T14:27:03.829+00:00</time>
      </trkpt>
      <trkpt lat="46.32533" lon="-0.46323">
        <ele>22</ele>
        <time>2023-07-18T14:27:08.348+00:00</time>
      </trkpt>
      <trkpt lat="46.32533" lon="-0.46318">
        <ele>22</ele>
        <time>2023-07-18T14:27:12.363+00:00</time>
      </trkpt>
      <trkpt lat="46.32536" lon="-0.46312">
        <ele>22</ele>
        <time>2023-07-18T14:27:17.004+00:00</time>
      </trkpt>
      <trkpt lat="46.32538" lon="-0.46305">
        <ele>22</ele>
        <time>2023-07-18T14:27:21.097+00:00</time>
      </trkpt>
      <trkpt lat="46.32538" lon="-0.46299">
        <ele>22</ele>
        <time>2023-07-18T14:27:25.614+00:00</time>
      </trkpt>
      <trkpt lat="46.32536" lon="-0.46294">
        <ele>22</ele>
        <time>2023-07-18T14:27:30.206+00:00</time>
      </trkpt>
      <trkpt lat="46.32533" lon="-0.46286">
        <ele>23</ele>
        <time>2023-07-18T14:27:34.245+00:00</time>
      </trkpt>
      <trkpt lat="46.32529" lon="-0.46277">
        <ele>23</ele>
        <time>2023-07-18T14:27:38.780+00:00</time>
      </trkpt>
      <trkpt lat="46.32526" lon="-0.46274">
        <ele>23</ele>
        <time>2023-07-18T14:27:43.300+00:00</time>
      </trkpt>
      <trkpt lat="46.32524" lon="-0.4627">
        <ele>23</ele>
        <time>2023-07-18T14:27:47.319+00:00</time>
      </trkpt>
      <trkpt lat="46.32522" lon="-0.46267">
        <ele>23</ele>
        <time>2023-07-18T14:27:51.832+00:00</time>
      </trkpt>
      <trkpt lat="46.32519" lon="-0.46264">
        <ele>24</ele>
        <time>2023-07-18T14:27:56.344+00:00</time>
      </trkpt>
      <trkpt lat="46.32518" lon="-0.46261">
        <ele>24</ele>
        <time>2023-07-18T14:28:00.858+00:00</time>
      </trkpt>
      <trkpt lat="46.32514" lon="-0.46256">
        <ele>25</ele>
        <time>2023-07-18T14:28:05.371+00:00</time>
      </trkpt>
      <trkpt lat="46.32511" lon="-0.46253">
        <ele>25</ele>
        <time>2023-07-18T14:28:09.382+00:00</time>
      </trkpt>
      <trkpt lat="46.32508" lon="-0.4625">
        <ele>25</ele>
        <time>2023-07-18T14:28:13.893+00:00</time>
      </trkpt>
      <trkpt lat="46.32505" lon="-0.46248">
        <ele>25</ele>
        <time>2023-07-18T14:28:18.906+00:00</time>
      </trkpt>
      <trkpt lat="46.32503" lon="-0.46245">
        <ele>25</ele>
        <time>2023-07-18T14:28:22.916+00:00</time>
      </trkpt>
      <trkpt lat="46.32499" lon="-0.46242">
        <ele>25</ele>
        <time>2023-07-18T14:28:27.524+00:00</time>
      </trkpt>
      <trkpt lat="46.32496" lon="-0.4624">
        <ele>25</ele>
        <time>2023-07-18T14:28:31.532+00:00</time>
      </trkpt>
      <trkpt lat="46.32493" lon="-0.46237">
        <ele>25</ele>
        <time>2023-07-18T14:28:36.040+00:00</time>
      </trkpt>
      <trkpt lat="46.32489" lon="-0.46235">
        <ele>26</ele>
        <time>2023-07-18T14:28:40.554+00:00</time>
      </trkpt>
      <trkpt lat="46.32484" lon="-0.46231">
        <ele>24</ele>
        <time>2023-07-18T14:28:44.669+00:00</time>
      </trkpt>
      <trkpt lat="46.32482" lon="-0.46226">
        <ele>24</ele>
        <time>2023-07-18T14:28:48.684+00:00</time>
      </trkpt>
      <trkpt lat="46.32477" lon="-0.46222">
        <ele>24</ele>
        <time>2023-07-18T14:28:53.201+00:00</time>
      </trkpt>
      <trkpt lat="46.32474" lon="-0.46219">
        <ele>24</ele>
        <time>2023-07-18T14:28:57.718+00:00</time>
      </trkpt>
      <trkpt lat="46.3247" lon="-0.46217">
        <ele>24</ele>
        <time>2023-07-18T14:29:01.831+00:00</time>
      </trkpt>
      <trkpt lat="46.3247" lon="-0.46214">
        <ele>24</ele>
        <time>2023-07-18T14:29:06.349+00:00</time>
      </trkpt>
      <trkpt lat="46.32473" lon="-0.46213">
        <ele>24</ele>
        <time>2023-07-18T14:29:10.365+00:00</time>
      </trkpt>
      <trkpt lat="46.32475" lon="-0.46209">
        <ele>24</ele>
        <time>2023-07-18T14:29:14.884+00:00</time>
      </trkpt>
      <trkpt lat="46.32479" lon="-0.46204">
        <ele>25</ele>
        <time>2023-07-18T14:29:18.996+00:00</time>
      </trkpt>
      <trkpt lat="46.32482" lon="-0.46198">
        <ele>25</ele>
        <time>2023-07-18T14:29:24.014+00:00</time>
      </trkpt>
      <trkpt lat="46.32483" lon="-0.46191">
        <ele>25</ele>
        <time>2023-07-18T14:29:28.130+00:00</time>
      </trkpt>
      <trkpt lat="46.32485" lon="-0.46184">
        <ele>25</ele>
        <time>2023-07-18T14:29:32.666+00:00</time>
      </trkpt>
      <trkpt lat="46.32485" lon="-0.46179">
        <ele>26</ele>
        <time>2023-07-18T14:29:37.690+00:00</time>
      </trkpt>
      <trkpt lat="46.32486" lon="-0.46178">
        <ele>26</ele>
        <time>2023-07-18T14:29:42.216+00:00</time>
      </trkpt>
      <trkpt lat="46.32481" lon="-0.46166">
        <ele>26</ele>
        <time>2023-07-18T14:29:47.007+00:00</time>
      </trkpt>
      <trkpt lat="46.32479" lon="-0.46161">
        <ele>26</ele>
        <time>2023-07-18T14:29:50.744+00:00</time>
      </trkpt>
      <trkpt lat="46.32479" lon="-0.46159">
        <ele>26</ele>
        <time>2023-07-18T14:29:55.757+00:00</time>
      </trkpt>
      <trkpt lat="46.32479" lon="-0.46157">
        <ele>26</ele>
        <time>2023-07-18T14:29:59.766+00:00</time>
      </trkpt>
      <trkpt lat="46.32483" lon="-0.46152">
        <ele>27</ele>
        <time>2023-07-18T14:30:03.773+00:00</time>
      </trkpt>
      <trkpt lat="46.32488" lon="-0.46147">
        <ele>29</ele>
        <time>2023-07-18T14:30:08.280+00:00</time>
      </trkpt>
      <trkpt lat="46.32492" lon="-0.46146">
        <ele>29</ele>
        <time>2023-07-18T14:30:12.787+00:00</time>
      </trkpt>
      <trkpt lat="46.32495" lon="-0.4615">
        <ele>29</ele>
        <time>2023-07-18T14:30:17.294+00:00</time>
      </trkpt>
      <trkpt lat="46.32496" lon="-0.4615">
        <ele>29</ele>
        <time>2023-07-18T14:30:18.798+00:00</time>
      </trkpt>
      <trkpt lat="46.32504" lon="-0.46139">
        <ele>29</ele>
        <time>2023-07-18T14:30:27.830+00:00</time>
      </trkpt>
      <trkpt lat="46.32509" lon="-0.46134">
        <ele>29</ele>
        <time>2023-07-18T14:30:31.840+00:00</time>
      </trkpt>
      <trkpt lat="46.32507" lon="-0.46135">
        <ele>29</ele>
        <time>2023-07-18T14:30:36.351+00:00</time>
      </trkpt>
      <trkpt lat="46.32507" lon="-0.46137">
        <ele>29</ele>
        <time>2023-07-18T14:30:40.366+00:00</time>
      </trkpt>
      <trkpt lat="46.32506" lon="-0.46152">
        <ele>29</ele>
        <time>2023-07-18T14:30:44.885+00:00</time>
      </trkpt>
      <trkpt lat="46.32505" lon="-0.46164">
        <ele>29</ele>
        <time>2023-07-18T14:30:49.402+00:00</time>
      </trkpt>
      <trkpt lat="46.32504" lon="-0.46173">
        <ele>29</ele>
        <time>2023-07-18T14:30:53.435+00:00</time>
      </trkpt>
      <trkpt lat="46.32501" lon="-0.4618">
        <ele>29</ele>
        <time>2023-07-18T14:30:57.449+00:00</time>
      </trkpt>
      <trkpt lat="46.32493" lon="-0.46186">
        <ele>27</ele>
        <time>2023-07-18T14:31:01.989+00:00</time>
      </trkpt>
      <trkpt lat="46.32489" lon="-0.4619">
        <ele>27</ele>
        <time>2023-07-18T14:31:06.081+00:00</time>
      </trkpt>
      <trkpt lat="46.32485" lon="-0.46195">
        <ele>25</ele>
        <time>2023-07-18T14:31:10.699+00:00</time>
      </trkpt>
      <trkpt lat="46.32481" lon="-0.46199">
        <ele>25</ele>
        <time>2023-07-18T14:31:14.713+00:00</time>
      </trkpt>
      <trkpt lat="46.32476" lon="-0.46205">
        <ele>25</ele>
        <time>2023-07-18T14:31:18.725+00:00</time>
      </trkpt>
      <trkpt lat="46.32475" lon="-0.46207">
        <ele>25</ele>
        <time>2023-07-18T14:31:23.240+00:00</time>
      </trkpt>
      <trkpt lat="46.32471" lon="-0.46204">
        <ele>25</ele>
        <time>2023-07-18T14:31:27.755+00:00</time>
      </trkpt>
      <trkpt lat="46.32467" lon="-0.46199">
        <ele>25</ele>
        <time>2023-07-18T14:31:31.868+00:00</time>
      </trkpt>
      <trkpt lat="46.32465" lon="-0.46196">
        <ele>25</ele>
        <time>2023-07-18T14:31:36.383+00:00</time>
      </trkpt>
      <trkpt lat="46.32463" lon="-0.46194">
        <ele>25</ele>
        <time>2023-07-18T14:31:40.897+00:00</time>
      </trkpt>
      <trkpt lat="46.32462" lon="-0.46193">
        <ele>25</ele>
        <time>2023-07-18T14:31:45.010+00:00</time>
      </trkpt>
      <trkpt lat="46.32459" lon="-0.4619">
        <ele>25</ele>
        <time>2023-07-18T14:31:49.525+00:00</time>
      </trkpt>
      <trkpt lat="46.32456" lon="-0.46188">
        <ele>23</ele>
        <time>2023-07-18T14:31:54.041+00:00</time>
      </trkpt>
      <trkpt lat="46.32453" lon="-0.46184">
        <ele>23</ele>
        <time>2023-07-18T14:31:58.558+00:00</time>
      </trkpt>
      <trkpt lat="46.32449" lon="-0.4618">
        <ele>24</ele>
        <time>2023-07-18T14:32:03.076+00:00</time>
      </trkpt>
      <trkpt lat="46.32444" lon="-0.46175">
        <ele>24</ele>
        <time>2023-07-18T14:32:07.593+00:00</time>
      </trkpt>
      <trkpt lat="46.32441" lon="-0.46172">
        <ele>24</ele>
        <time>2023-07-18T14:32:12.109+00:00</time>
      </trkpt>
      <trkpt lat="46.32438" lon="-0.46171">
        <ele>24</ele>
        <time>2023-07-18T14:32:16.124+00:00</time>
      </trkpt>
      <trkpt lat="46.32434" lon="-0.46169">
        <ele>24</ele>
        <time>2023-07-18T14:32:20.643+00:00</time>
      </trkpt>
      <trkpt lat="46.32431" lon="-0.46166">
        <ele>24</ele>
        <time>2023-07-18T14:32:24.765+00:00</time>
      </trkpt>
      <trkpt lat="46.32426" lon="-0.46165">
        <ele>25</ele>
        <time>2023-07-18T14:32:27.292+00:00</time>
      </trkpt>
      <trkpt lat="46.32414" lon="-0.46162">
        <ele>25</ele>
        <time>2023-07-18T14:32:36.923+00:00</time>
      </trkpt>
      <trkpt lat="46.32414" lon="-0.46165">
        <ele>25</ele>
        <time>2023-07-18T14:32:40.941+00:00</time>
      </trkpt>
      <trkpt lat="46.32412" lon="-0.46166">
        <ele>25</ele>
        <time>2023-07-18T14:32:45.462+00:00</time>
      </trkpt>
      <trkpt lat="46.32409" lon="-0.46166">
        <ele>25</ele>
        <time>2023-07-18T14:32:49.983+00:00</time>
      </trkpt>
      <trkpt lat="46.32406" lon="-0.46165">
        <ele>25</ele>
        <time>2023-07-18T14:32:54.504+00:00</time>
      </trkpt>
      <trkpt lat="46.32403" lon="-0.46165">
        <ele>25</ele>
        <time>2023-07-18T14:32:59.026+00:00</time>
      </trkpt>
      <trkpt lat="46.32401" lon="-0.46165">
        <ele>25</ele>
        <time>2023-07-18T14:33:03.551+00:00</time>
      </trkpt>
      <trkpt lat="46.32399" lon="-0.46163">
        <ele>25</ele>
        <time>2023-07-18T14:33:07.565+00:00</time>
      </trkpt>
      <trkpt lat="46.32395" lon="-0.46158">
        <ele>25</ele>
        <time>2023-07-18T14:33:12.579+00:00</time>
      </trkpt>
      <trkpt lat="46.32392" lon="-0.46154">
        <ele>25</ele>
        <time>2023-07-18T14:33:17.090+00:00</time>
      </trkpt>
      <trkpt lat="46.32395" lon="-0.46159">
        <ele>25</ele>
        <time>2023-07-18T14:33:21.992+00:00</time>
      </trkpt>
      <trkpt lat="46.32379" lon="-0.46151">
        <ele>25</ele>
        <time>2023-07-18T14:33:37.810+00:00</time>
      </trkpt>
      <trkpt lat="46.32375" lon="-0.46147">
        <ele>25</ele>
        <time>2023-07-18T14:33:42.835+00:00</time>
      </trkpt>
      <trkpt lat="46.3237" lon="-0.46145">
        <ele>25</ele>
        <time>2023-07-18T14:33:47.818+00:00</time>
      </trkpt>
      <trkpt lat="46.3236" lon="-0.46133">
        <ele>25</ele>
        <time>2023-07-18T14:34:27.376+00:00</time>
      </trkpt>
      <trkpt lat="46.32356" lon="-0.46131">
        <ele>25</ele>
        <time>2023-07-18T14:34:31.380+00:00</time>
      </trkpt>
      <trkpt lat="46.32349" lon="-0.4613">
        <ele>25</ele>
        <time>2023-07-18T14:34:35.383+00:00</time>
      </trkpt>
      <trkpt lat="46.32347" lon="-0.46129">
        <ele>25</ele>
        <time>2023-07-18T14:34:39.888+00:00</time>
      </trkpt>
      <trkpt lat="46.32343" lon="-0.46123">
        <ele>24</ele>
        <time>2023-07-18T14:34:43.891+00:00</time>
      </trkpt>
      <trkpt lat="46.32341" lon="-0.46117">
        <ele>24</ele>
        <time>2023-07-18T14:34:47.898+00:00</time>
      </trkpt>
      <trkpt lat="46.32339" lon="-0.46114">
        <ele>24</ele>
        <time>2023-07-18T14:34:52.507+00:00</time>
      </trkpt>
      <trkpt lat="46.32339" lon="-0.46111">
        <ele>24</ele>
        <time>2023-07-18T14:34:56.514+00:00</time>
      </trkpt>
      <trkpt lat="46.32338" lon="-0.46106">
        <ele>24</ele>
        <time>2023-07-18T14:35:01.020+00:00</time>
      </trkpt>
      <trkpt lat="46.32337" lon="-0.46099">
        <ele>24</ele>
        <time>2023-07-18T14:35:05.624+00:00</time>
      </trkpt>
      <trkpt lat="46.32341" lon="-0.46067">
        <ele>22</ele>
        <time>2023-07-18T14:35:54.999+00:00</time>
      </trkpt>
      <trkpt lat="46.32387" lon="-0.46058">
        <ele>25</ele>
        <time>2023-07-18T14:36:00.002+00:00</time>
      </trkpt>
      <trkpt lat="46.32419" lon="-0.46076">
        <ele>27</ele>
        <time>2023-07-18T14:36:04.980+00:00</time>
      </trkpt>
      <trkpt lat="46.32432" lon="-0.46089">
        <ele>28</ele>
        <time>2023-07-18T14:36:08.994+00:00</time>
      </trkpt>
      <trkpt lat="46.32437" lon="-0.46111">
        <ele>27</ele>
        <time>2023-07-18T14:36:14.014+00:00</time>
      </trkpt>
      <trkpt lat="46.32431" lon="-0.46116">
        <ele>27</ele>
        <time>2023-07-18T14:36:18.008+00:00</time>
      </trkpt>
      <trkpt lat="46.32416" lon="-0.46114">
        <ele>27</ele>
        <time>2023-07-18T14:36:23.004+00:00</time>
      </trkpt>
      <trkpt lat="46.32399" lon="-0.46104">
        <ele>25</ele>
        <time>2023-07-18T14:36:28.006+00:00</time>
      </trkpt>
      <trkpt lat="46.32379" lon="-0.46089">
        <ele>25</ele>
        <time>2023-07-18T14:36:32.994+00:00</time>
      </trkpt>
      <trkpt lat="46.32365" lon="-0.46091">
        <ele>23</ele>
        <time>2023-07-18T14:37:00.991+00:00</time>
      </trkpt>
      <trkpt lat="46.32386" lon="-0.46094">
        <ele>25</ele>
        <time>2023-07-18T14:37:06.005+00:00</time>
      </trkpt>
      <trkpt lat="46.32407" lon="-0.46101">
        <ele>27</ele>
        <time>2023-07-18T14:37:11.004+00:00</time>
      </trkpt>
      <trkpt lat="46.32428" lon="-0.46116">
        <ele>27</ele>
        <time>2023-07-18T14:37:16.007+00:00</time>
      </trkpt>
      <trkpt lat="46.32442" lon="-0.46126">
        <ele>26</ele>
        <time>2023-07-18T14:37:20.009+00:00</time>
      </trkpt>
      <trkpt lat="46.32472" lon="-0.46143">
        <ele>27</ele>
        <time>2023-07-18T14:37:38.008+00:00</time>
      </trkpt>
      <trkpt lat="46.32472" lon="-0.4614">
        <ele>27</ele>
        <time>2023-07-18T14:37:43.001+00:00</time>
      </trkpt>
      <trkpt lat="46.32472" lon="-0.46137">
        <ele>27</ele>
        <time>2023-07-18T14:37:47.015+00:00</time>
      </trkpt>
      <trkpt lat="46.32452" lon="-0.4612">
        <ele>27</ele>
        <time>2023-07-18T14:37:51.999+00:00</time>
      </trkpt>
      <trkpt lat="46.32429" lon="-0.46101">
        <ele>27</ele>
        <time>2023-07-18T14:37:55.600+00:00</time>
      </trkpt>
      <trkpt lat="46.32414" lon="-0.46102">
        <ele>27</ele>
        <time>2023-07-18T14:38:00.296+00:00</time>
      </trkpt>
      <trkpt lat="46.32345" lon="-0.46084">
        <ele>23</ele>
        <time>2023-07-18T14:38:04.309+00:00</time>
      </trkpt>
      <trkpt lat="46.32335" lon="-0.46083">
        <ele>23</ele>
        <time>2023-07-18T14:38:08.322+00:00</time>
      </trkpt>
      <trkpt lat="46.32328" lon="-0.46076">
        <ele>23</ele>
        <time>2023-07-18T14:38:17.964+00:00</time>
      </trkpt>
      <trkpt lat="46.32322" lon="-0.46064">
        <ele>22</ele>
        <time>2023-07-18T14:38:22.072+00:00</time>
      </trkpt>
      <trkpt lat="46.32319" lon="-0.46057">
        <ele>22</ele>
        <time>2023-07-18T14:38:26.879+00:00</time>
      </trkpt>
      <trkpt lat="46.32317" lon="-0.46054">
        <ele>22</ele>
        <time>2023-07-18T14:38:30.886+00:00</time>
      </trkpt>
      <trkpt lat="46.32315" lon="-0.4605">
        <ele>22</ele>
        <time>2023-07-18T14:38:35.391+00:00</time>
      </trkpt>
      <trkpt lat="46.32312" lon="-0.46044">
        <ele>22</ele>
        <time>2023-07-18T14:38:39.395+00:00</time>
      </trkpt>
      <trkpt lat="46.32309" lon="-0.4604">
        <ele>22</ele>
        <time>2023-07-18T14:38:43.898+00:00</time>
      </trkpt>
      <trkpt lat="46.32308" lon="-0.46039">
        <ele>22</ele>
        <time>2023-07-18T14:38:44.398+00:00</time>
      </trkpt>
      <trkpt lat="46.32299" lon="-0.46024">
        <ele>22</ele>
        <time>2023-07-18T14:38:53.924+00:00</time>
      </trkpt>
      <trkpt lat="46.32302" lon="-0.46025">
        <ele>22</ele>
        <time>2023-07-18T14:39:20.561+00:00</time>
      </trkpt>
      <trkpt lat="46.32296" lon="-0.46017">
        <ele>22</ele>
        <time>2023-07-18T14:39:25.079+00:00</time>
      </trkpt>
      <trkpt lat="46.32296" lon="-0.46011">
        <ele>22</ele>
        <time>2023-07-18T14:39:29.597+00:00</time>
      </trkpt>
      <trkpt lat="46.32298" lon="-0.4601">
        <ele>22</ele>
        <time>2023-07-18T14:39:33.630+00:00</time>
      </trkpt>
      <trkpt lat="46.32298" lon="-0.46009">
        <ele>22</ele>
        <time>2023-07-18T14:39:38.653+00:00</time>
      </trkpt>
      <trkpt lat="46.32298" lon="-0.46007">
        <ele>22</ele>
        <time>2023-07-18T14:39:43.272+00:00</time>
      </trkpt>
      <trkpt lat="46.323" lon="-0.46005">
        <ele>22</ele>
        <time>2023-07-18T14:39:47.285+00:00</time>
      </trkpt>
      <trkpt lat="46.32303" lon="-0.46003">
        <ele>22</ele>
        <time>2023-07-18T14:39:51.801+00:00</time>
      </trkpt>
      <trkpt lat="46.32308" lon="-0.45998">
        <ele>22</ele>
        <time>2023-07-18T14:39:56.316+00:00</time>
      </trkpt>
      <trkpt lat="46.32312" lon="-0.45995">
        <ele>22</ele>
        <time>2023-07-18T14:40:00.833+00:00</time>
      </trkpt>
      <trkpt lat="46.32318" lon="-0.4599">
        <ele>22</ele>
        <time>2023-07-18T14:40:05.347+00:00</time>
      </trkpt>
      <trkpt lat="46.32322" lon="-0.45986">
        <ele>22</ele>
        <time>2023-07-18T14:40:09.359+00:00</time>
      </trkpt>
      <trkpt lat="46.32326" lon="-0.45981">
        <ele>22</ele>
        <time>2023-07-18T14:40:13.873+00:00</time>
      </trkpt>
      <trkpt lat="46.3233" lon="-0.45976">
        <ele>22</ele>
        <time>2023-07-18T14:40:17.885+00:00</time>
      </trkpt>
      <trkpt lat="46.32335" lon="-0.45971">
        <ele>22</ele>
        <time>2023-07-18T14:40:23.001+00:00</time>
      </trkpt>
      <trkpt lat="46.32338" lon="-0.45969">
        <ele>22</ele>
        <time>2023-07-18T14:40:27.616+00:00</time>
      </trkpt>
      <trkpt lat="46.32339" lon="-0.45967">
        <ele>22</ele>
        <time>2023-07-18T14:40:32.635+00:00</time>
      </trkpt>
      <trkpt lat="46.32341" lon="-0.45967">
        <ele>22</ele>
        <time>2023-07-18T14:40:36.650+00:00</time>
      </trkpt>
      <trkpt lat="46.32345" lon="-0.45969">
        <ele>22</ele>
        <time>2023-07-18T14:40:41.172+00:00</time>
      </trkpt>
      <trkpt lat="46.32349" lon="-0.45967">
        <ele>23</ele>
        <time>2023-07-18T14:40:45.686+00:00</time>
      </trkpt>
      <trkpt lat="46.32354" lon="-0.4596">
        <ele>23</ele>
        <time>2023-07-18T14:40:50.197+00:00</time>
      </trkpt>
      <trkpt lat="46.32357" lon="-0.45956">
        <ele>23</ele>
        <time>2023-07-18T14:40:54.707+00:00</time>
      </trkpt>
      <trkpt lat="46.32359" lon="-0.45953">
        <ele>23</ele>
        <time>2023-07-18T14:40:58.715+00:00</time>
      </trkpt>
      <trkpt lat="46.32361" lon="-0.45948">
        <ele>23</ele>
        <time>2023-07-18T14:41:03.221+00:00</time>
      </trkpt>
      <trkpt lat="46.32361" lon="-0.45944">
        <ele>23</ele>
        <time>2023-07-18T14:41:07.727+00:00</time>
      </trkpt>
      <trkpt lat="46.32358" lon="-0.45933">
        <ele>23</ele>
        <time>2023-07-18T14:41:12.736+00:00</time>
      </trkpt>
      <trkpt lat="46.3236" lon="-0.45927">
        <ele>23</ele>
        <time>2023-07-18T14:41:17.243+00:00</time>
      </trkpt>
      <trkpt lat="46.32357" lon="-0.45917">
        <ele>23</ele>
        <time>2023-07-18T14:41:21.749+00:00</time>
      </trkpt>
      <trkpt lat="46.32357" lon="-0.4591">
        <ele>23</ele>
        <time>2023-07-18T14:41:26.853+00:00</time>
      </trkpt>
      <trkpt lat="46.32363" lon="-0.45906">
        <ele>23</ele>
        <time>2023-07-18T14:41:30.857+00:00</time>
      </trkpt>
      <trkpt lat="46.32366" lon="-0.459">
        <ele>23</ele>
        <time>2023-07-18T14:41:35.362+00:00</time>
      </trkpt>
      <trkpt lat="46.3237" lon="-0.45895">
        <ele>23</ele>
        <time>2023-07-18T14:41:39.866+00:00</time>
      </trkpt>
      <trkpt lat="46.32372" lon="-0.45887">
        <ele>23</ele>
        <time>2023-07-18T14:41:44.872+00:00</time>
      </trkpt>
      <trkpt lat="46.32375" lon="-0.4588">
        <ele>23</ele>
        <time>2023-07-18T14:41:49.378+00:00</time>
      </trkpt>
      <trkpt lat="46.32372" lon="-0.45877">
        <ele>23</ele>
        <time>2023-07-18T14:41:53.882+00:00</time>
      </trkpt>
      <trkpt lat="46.32372" lon="-0.45871">
        <ele>22</ele>
        <time>2023-07-18T14:41:58.388+00:00</time>
      </trkpt>
      <trkpt lat="46.32368" lon="-0.45865">
        <ele>22</ele>
        <time>2023-07-18T14:42:02.393+00:00</time>
      </trkpt>
      <trkpt lat="46.32366" lon="-0.45861">
        <ele>22</ele>
        <time>2023-07-18T14:42:06.898+00:00</time>
      </trkpt>
      <trkpt lat="46.32362" lon="-0.45853">
        <ele>22</ele>
        <time>2023-07-18T14:42:11.905+00:00</time>
      </trkpt>
      <trkpt lat="46.32358" lon="-0.45847">
        <ele>21</ele>
        <time>2023-07-18T14:42:16.410+00:00</time>
      </trkpt>
      <trkpt lat="46.32355" lon="-0.4584">
        <ele>21</ele>
        <time>2023-07-18T14:42:20.416+00:00</time>
      </trkpt>
      <trkpt lat="46.32352" lon="-0.45833">
        <ele>21</ele>
        <time>2023-07-18T14:42:24.923+00:00</time>
      </trkpt>
      <trkpt lat="46.3235" lon="-0.45828">
        <ele>21</ele>
        <time>2023-07-18T14:42:29.429+00:00</time>
      </trkpt>
      <trkpt lat="46.32348" lon="-0.45824">
        <ele>21</ele>
        <time>2023-07-18T14:42:33.434+00:00</time>
      </trkpt>
      <trkpt lat="46.32345" lon="-0.45819">
        <ele>22</ele>
        <time>2023-07-18T14:42:37.942+00:00</time>
      </trkpt>
      <trkpt lat="46.32343" lon="-0.45817">
        <ele>22</ele>
        <time>2023-07-18T14:42:41.948+00:00</time>
      </trkpt>
      <trkpt lat="46.32342" lon="-0.4581">
        <ele>22</ele>
        <time>2023-07-18T14:42:46.556+00:00</time>
      </trkpt>
      <trkpt lat="46.3234" lon="-0.45804">
        <ele>22</ele>
        <time>2023-07-18T14:42:51.062+00:00</time>
      </trkpt>
      <trkpt lat="46.32336" lon="-0.45798">
        <ele>22</ele>
        <time>2023-07-18T14:42:55.569+00:00</time>
      </trkpt>
      <trkpt lat="46.32333" lon="-0.45791">
        <ele>24</ele>
        <time>2023-07-18T14:43:00.183+00:00</time>
      </trkpt>
      <trkpt lat="46.32328" lon="-0.45786">
        <ele>24</ele>
        <time>2023-07-18T14:43:04.203+00:00</time>
      </trkpt>
      <trkpt lat="46.32323" lon="-0.45786">
        <ele>24</ele>
        <time>2023-07-18T14:43:08.712+00:00</time>
      </trkpt>
      <trkpt lat="46.32319" lon="-0.45785">
        <ele>26</ele>
        <time>2023-07-18T14:43:12.718+00:00</time>
      </trkpt>
      <trkpt lat="46.32317" lon="-0.45779">
        <ele>26</ele>
        <time>2023-07-18T14:43:17.227+00:00</time>
      </trkpt>
      <trkpt lat="46.32316" lon="-0.45769">
        <ele>26</ele>
        <time>2023-07-18T14:43:21.236+00:00</time>
      </trkpt>
      <trkpt lat="46.32312" lon="-0.45762">
        <ele>29</ele>
        <time>2023-07-18T14:43:25.746+00:00</time>
      </trkpt>
      <trkpt lat="46.32311" lon="-0.45758">
        <ele>29</ele>
        <time>2023-07-18T14:43:29.754+00:00</time>
      </trkpt>
      <trkpt lat="46.32309" lon="-0.45753">
        <ele>29</ele>
        <time>2023-07-18T14:43:34.263+00:00</time>
      </trkpt>
      <trkpt lat="46.32307" lon="-0.45747">
        <ele>29</ele>
        <time>2023-07-18T14:43:38.773+00:00</time>
      </trkpt>
      <trkpt lat="46.32307" lon="-0.45741">
        <ele>29</ele>
        <time>2023-07-18T14:43:42.782+00:00</time>
      </trkpt>
      <trkpt lat="46.32307" lon="-0.45737">
        <ele>29</ele>
        <time>2023-07-18T14:43:46.791+00:00</time>
      </trkpt>
      <trkpt lat="46.32307" lon="-0.45728">
        <ele>30</ele>
        <time>2023-07-18T14:43:51.301+00:00</time>
      </trkpt>
      <trkpt lat="46.32305" lon="-0.45717">
        <ele>30</ele>
        <time>2023-07-18T14:43:55.410+00:00</time>
      </trkpt>
      <trkpt lat="46.32304" lon="-0.45716">
        <ele>30</ele>
        <time>2023-07-18T14:43:55.911+00:00</time>
      </trkpt>
      <trkpt lat="46.32302" lon="-0.45705">
        <ele>31</ele>
        <time>2023-07-18T14:44:04.926+00:00</time>
      </trkpt>
      <trkpt lat="46.32302" lon="-0.45701">
        <ele>31</ele>
        <time>2023-07-18T14:44:08.933+00:00</time>
      </trkpt>
      <trkpt lat="46.32302" lon="-0.45696">
        <ele>31</ele>
        <time>2023-07-18T14:44:13.943+00:00</time>
      </trkpt>
      <trkpt lat="46.32302" lon="-0.45695">
        <ele>31</ele>
        <time>2023-07-18T14:44:14.945+00:00</time>
      </trkpt>
      <trkpt lat="46.32303" lon="-0.45692">
        <ele>31</ele>
        <time>2023-07-18T14:44:23.473+00:00</time>
      </trkpt>
      <trkpt lat="46.32301" lon="-0.45685">
        <ele>31</ele>
        <time>2023-07-18T14:44:27.988+00:00</time>
      </trkpt>
      <trkpt lat="46.32298" lon="-0.45687">
        <ele>31</ele>
        <time>2023-07-18T14:46:50.898+00:00</time>
      </trkpt>
      <trkpt lat="46.32304" lon="-0.45691">
        <ele>31</ele>
        <time>2023-07-18T14:46:57.422+00:00</time>
      </trkpt>
      <trkpt lat="46.32307" lon="-0.45696">
        <ele>31</ele>
        <time>2023-07-18T14:47:01.932+00:00</time>
      </trkpt>
      <trkpt lat="46.32309" lon="-0.45701">
        <ele>31</ele>
        <time>2023-07-18T14:47:05.942+00:00</time>
      </trkpt>
      <trkpt lat="46.32309" lon="-0.45704">
        <ele>31</ele>
        <time>2023-07-18T14:47:09.949+00:00</time>
      </trkpt>
      <trkpt lat="46.32312" lon="-0.4571">
        <ele>30</ele>
        <time>2023-07-18T14:47:14.458+00:00</time>
      </trkpt>
      <trkpt lat="46.32313" lon="-0.45715">
        <ele>30</ele>
        <time>2023-07-18T14:47:18.966+00:00</time>
      </trkpt>
      <trkpt lat="46.32315" lon="-0.45721">
        <ele>30</ele>
        <time>2023-07-18T14:47:22.971+00:00</time>
      </trkpt>
      <trkpt lat="46.32318" lon="-0.45727">
        <ele>30</ele>
        <time>2023-07-18T14:47:27.077+00:00</time>
      </trkpt>
      <trkpt lat="46.32321" lon="-0.45733">
        <ele>26</ele>
        <time>2023-07-18T14:47:31.186+00:00</time>
      </trkpt>
      <trkpt lat="46.32325" lon="-0.4574">
        <ele>25</ele>
        <time>2023-07-18T14:47:35.195+00:00</time>
      </trkpt>
      <trkpt lat="46.32327" lon="-0.45747">
        <ele>25</ele>
        <time>2023-07-18T14:47:39.705+00:00</time>
      </trkpt>
      <trkpt lat="46.32325" lon="-0.45756">
        <ele>25</ele>
        <time>2023-07-18T14:47:43.814+00:00</time>
      </trkpt>
      <trkpt lat="46.32323" lon="-0.45764">
        <ele>24</ele>
        <time>2023-07-18T14:47:48.824+00:00</time>
      </trkpt>
      <trkpt lat="46.32322" lon="-0.45771">
        <ele>24</ele>
        <time>2023-07-18T14:47:52.831+00:00</time>
      </trkpt>
      <trkpt lat="46.32323" lon="-0.45777">
        <ele>24</ele>
        <time>2023-07-18T14:47:56.935+00:00</time>
      </trkpt>
      <trkpt lat="46.32325" lon="-0.45782">
        <ele>24</ele>
        <time>2023-07-18T14:48:00.939+00:00</time>
      </trkpt>
      <trkpt lat="46.32325" lon="-0.45784">
        <ele>24</ele>
        <time>2023-07-18T14:48:05.944+00:00</time>
      </trkpt>
      <trkpt lat="46.32322" lon="-0.45788">
        <ele>24</ele>
        <time>2023-07-18T14:48:10.951+00:00</time>
      </trkpt>
      <trkpt lat="46.32319" lon="-0.45795">
        <ele>24</ele>
        <time>2023-07-18T14:48:15.153+00:00</time>
      </trkpt>
      <trkpt lat="46.32318" lon="-0.45799">
        <ele>24</ele>
        <time>2023-07-18T14:48:19.758+00:00</time>
      </trkpt>
      <trkpt lat="46.32318" lon="-0.45805">
        <ele>24</ele>
        <time>2023-07-18T14:48:24.262+00:00</time>
      </trkpt>
      <trkpt lat="46.32317" lon="-0.45811">
        <ele>24</ele>
        <time>2023-07-18T14:48:28.767+00:00</time>
      </trkpt>
      <trkpt lat="46.32317" lon="-0.45816">
        <ele>24</ele>
        <time>2023-07-18T14:48:32.771+00:00</time>
      </trkpt>
      <trkpt lat="46.32315" lon="-0.45821">
        <ele>22</ele>
        <time>2023-07-18T14:48:37.374+00:00</time>
      </trkpt>
      <trkpt lat="46.32313" lon="-0.45822">
        <ele>22</ele>
        <time>2023-07-18T14:48:41.378+00:00</time>
      </trkpt>
      <trkpt lat="46.32311" lon="-0.45824">
        <ele>22</ele>
        <time>2023-07-18T14:48:45.881+00:00</time>
      </trkpt>
      <trkpt lat="46.32309" lon="-0.45827">
        <ele>22</ele>
        <time>2023-07-18T14:48:49.985+00:00</time>
      </trkpt>
      <trkpt lat="46.32307" lon="-0.45833">
        <ele>22</ele>
        <time>2023-07-18T14:48:53.988+00:00</time>
      </trkpt>
      <trkpt lat="46.32303" lon="-0.45842">
        <ele>22</ele>
        <time>2023-07-18T14:48:58.649+00:00</time>
      </trkpt>
      <trkpt lat="46.32303" lon="-0.45847">
        <ele>20</ele>
        <time>2023-07-18T14:49:02.651+00:00</time>
      </trkpt>
      <trkpt lat="46.32305" lon="-0.45853">
        <ele>20</ele>
        <time>2023-07-18T14:49:06.654+00:00</time>
      </trkpt>
      <trkpt lat="46.32307" lon="-0.45862">
        <ele>20</ele>
        <time>2023-07-18T14:49:11.695+00:00</time>
      </trkpt>
      <trkpt lat="46.3231" lon="-0.45868">
        <ele>20</ele>
        <time>2023-07-18T14:49:16.032+00:00</time>
      </trkpt>
      <trkpt lat="46.32311" lon="-0.45876">
        <ele>20</ele>
        <time>2023-07-18T14:49:20.476+00:00</time>
      </trkpt>
      <trkpt lat="46.32313" lon="-0.45881">
        <ele>20</ele>
        <time>2023-07-18T14:49:24.795+00:00</time>
      </trkpt>
      <trkpt lat="46.32315" lon="-0.45888">
        <ele>20</ele>
        <time>2023-07-18T14:49:29.095+00:00</time>
      </trkpt>
      <trkpt lat="46.32318" lon="-0.45894">
        <ele>20</ele>
        <time>2023-07-18T14:49:33.435+00:00</time>
      </trkpt>
      <trkpt lat="46.32321" lon="-0.45901">
        <ele>21</ele>
        <time>2023-07-18T14:49:38.633+00:00</time>
      </trkpt>
      <trkpt lat="46.32322" lon="-0.45907">
        <ele>21</ele>
        <time>2023-07-18T14:49:43.074+00:00</time>
      </trkpt>
      <trkpt lat="46.32324" lon="-0.45913">
        <ele>21</ele>
        <time>2023-07-18T14:49:47.894+00:00</time>
      </trkpt>
      <trkpt lat="46.32327" lon="-0.45918">
        <ele>21</ele>
        <time>2023-07-18T14:49:52.436+00:00</time>
      </trkpt>
      <trkpt lat="46.32328" lon="-0.45922">
        <ele>21</ele>
        <time>2023-07-18T14:49:56.937+00:00</time>
      </trkpt>
      <trkpt lat="46.32332" lon="-0.45927">
        <ele>21</ele>
        <time>2023-07-18T14:50:01.599+00:00</time>
      </trkpt>
      <trkpt lat="46.32333" lon="-0.45932">
        <ele>21</ele>
        <time>2023-07-18T14:50:05.760+00:00</time>
      </trkpt>
      <trkpt lat="46.32335" lon="-0.45934">
        <ele>21</ele>
        <time>2023-07-18T14:50:09.961+00:00</time>
      </trkpt>
      <trkpt lat="46.32337" lon="-0.45938">
        <ele>21</ele>
        <time>2023-07-18T14:50:14.102+00:00</time>
      </trkpt>
      <trkpt lat="46.3234" lon="-0.45943">
        <ele>21</ele>
        <time>2023-07-18T14:50:18.561+00:00</time>
      </trkpt>
      <trkpt lat="46.32342" lon="-0.45948">
        <ele>21</ele>
        <time>2023-07-18T14:50:22.401+00:00</time>
      </trkpt>
      <trkpt lat="46.32345" lon="-0.45952">
        <ele>21</ele>
        <time>2023-07-18T14:50:26.984+00:00</time>
      </trkpt>
      <trkpt lat="46.32354" lon="-0.45945">
        <ele>23</ele>
        <time>2023-07-18T14:50:31.363+00:00</time>
      </trkpt>
      <trkpt lat="46.32362" lon="-0.45941">
        <ele>23</ele>
        <time>2023-07-18T14:50:35.203+00:00</time>
      </trkpt>
      <trkpt lat="46.32364" lon="-0.45942">
        <ele>23</ele>
        <time>2023-07-18T14:50:39.663+00:00</time>
      </trkpt>
      <trkpt lat="46.32369" lon="-0.45939">
        <ele>23</ele>
        <time>2023-07-18T14:53:03.010+00:00</time>
      </trkpt>
      <trkpt lat="46.32371" lon="-0.45941">
        <ele>23</ele>
        <time>2023-07-18T14:53:07.044+00:00</time>
      </trkpt>
      <trkpt lat="46.32372" lon="-0.45942">
        <ele>23</ele>
        <time>2023-07-18T14:53:11.047+00:00</time>
      </trkpt>
      <trkpt lat="46.32372" lon="-0.45942">
        <ele>23</ele>
        <time>2023-07-18T14:53:15.650+00:00</time>
      </trkpt>
      <trkpt lat="46.32373" lon="-0.45943">
        <ele>23</ele>
        <time>2023-07-18T14:53:19.653+00:00</time>
      </trkpt>
      <trkpt lat="46.3237" lon="-0.45947">
        <ele>23</ele>
        <time>2023-07-18T14:54:45.039+00:00</time>
      </trkpt>
      <trkpt lat="46.3237" lon="-0.45949">
        <ele>23</ele>
        <time>2023-07-18T14:54:50.021+00:00</time>
      </trkpt>
      <trkpt lat="46.3237" lon="-0.45953">
        <ele>23</ele>
        <time>2023-07-18T14:54:55.023+00:00</time>
      </trkpt>
      <trkpt lat="46.32371" lon="-0.45954">
        <ele>23</ele>
        <time>2023-07-18T14:55:00.023+00:00</time>
      </trkpt>
      <trkpt lat="46.32373" lon="-0.45956">
        <ele>23</ele>
        <time>2023-07-18T14:55:05.031+00:00</time>
      </trkpt>
      <trkpt lat="46.32371" lon="-0.45946">
        <ele>23</ele>
        <time>2023-07-18T15:03:36.045+00:00</time>
      </trkpt>
      <trkpt lat="46.32371" lon="-0.45945">
        <ele>23</ele>
        <time>2023-07-18T15:03:41.044+00:00</time>
      </trkpt>
      <trkpt lat="46.32371" lon="-0.45945">
        <ele>23</ele>
        <time>2023-07-18T15:03:46.019+00:00</time>
      </trkpt>
      <trkpt lat="46.32371" lon="-0.45945">
        <ele>23</ele>
        <time>2023-07-18T15:03:50.037+00:00</time>
      </trkpt>
      <trkpt lat="46.32371" lon="-0.45945">
        <ele>23</ele>
        <time>2023-07-18T15:03:55.017+00:00</time>
      </trkpt>
      <trkpt lat="46.32365" lon="-0.45939">
        <ele>23</ele>
        <time>2023-07-18T15:12:33.991+00:00</time>
      </trkpt>
      <trkpt lat="46.32365" lon="-0.45939">
        <ele>23</ele>
        <time>2023-07-18T15:12:38.011+00:00</time>
      </trkpt>
      <trkpt lat="46.32364" lon="-0.45938">
        <ele>23</ele>
        <time>2023-07-18T15:12:42.012+00:00</time>
      </trkpt>
      <trkpt lat="46.32364" lon="-0.45938">
        <ele>23</ele>
        <time>2023-07-18T15:12:46.025+00:00</time>
      </trkpt>
      <trkpt lat="46.32363" lon="-0.45938">
        <ele>23</ele>
        <time>2023-07-18T15:12:50.031+00:00</time>
      </trkpt>
      <trkpt lat="46.32363" lon="-0.45936">
        <ele>23</ele>
        <time>2023-07-18T15:19:12.027+00:00</time>
      </trkpt>
      <trkpt lat="46.32364" lon="-0.45934">
        <ele>23</ele>
        <time>2023-07-18T15:19:17.029+00:00</time>
      </trkpt>
      <trkpt lat="46.32365" lon="-0.45932">
        <ele>23</ele>
        <time>2023-07-18T15:19:21.991+00:00</time>
      </trkpt>
      <trkpt lat="46.32364" lon="-0.45926">
        <ele>23</ele>
        <time>2023-07-18T15:19:25.994+00:00</time>
      </trkpt>
      <trkpt lat="46.32361" lon="-0.45914">
        <ele>23</ele>
        <time>2023-07-18T15:19:30.013+00:00</time>
      </trkpt>
      <trkpt lat="46.32357" lon="-0.45895">
        <ele>23</ele>
        <time>2023-07-18T15:19:34.976+00:00</time>
      </trkpt>
      <trkpt lat="46.32363" lon="-0.45927">
        <ele>23</ele>
        <time>2023-07-18T15:19:39.086+00:00</time>
      </trkpt>
      <trkpt lat="46.32367" lon="-0.4594">
        <ele>23</ele>
        <time>2023-07-18T15:19:43.203+00:00</time>
      </trkpt>
      <trkpt lat="46.3236" lon="-0.45948">
        <ele>23</ele>
        <time>2023-07-18T15:19:48.086+00:00</time>
      </trkpt>
      <trkpt lat="46.32364" lon="-0.45947">
        <ele>23</ele>
        <time>2023-07-18T15:22:59.840+00:00</time>
      </trkpt>
      <trkpt lat="46.32361" lon="-0.45949">
        <ele>23</ele>
        <time>2023-07-18T15:23:03.704+00:00</time>
      </trkpt>
      <trkpt lat="46.3236" lon="-0.45953">
        <ele>23</ele>
        <time>2023-07-18T15:23:07.846+00:00</time>
      </trkpt>
      <trkpt lat="46.32352" lon="-0.45959">
        <ele>23</ele>
        <time>2023-07-18T15:23:12.958+00:00</time>
      </trkpt>
      <trkpt lat="46.32348" lon="-0.45965">
        <ele>23</ele>
        <time>2023-07-18T15:23:17.043+00:00</time>
      </trkpt>
      <trkpt lat="46.32342" lon="-0.45967">
        <ele>22</ele>
        <time>2023-07-18T15:23:22.002+00:00</time>
      </trkpt>
      <trkpt lat="46.32342" lon="-0.4597">
        <ele>22</ele>
        <time>2023-07-18T15:23:27.007+00:00</time>
      </trkpt>
      <trkpt lat="46.32346" lon="-0.45972">
        <ele>22</ele>
        <time>2023-07-18T15:23:31.011+00:00</time>
      </trkpt>
      <trkpt lat="46.32349" lon="-0.45982">
        <ele>23</ele>
        <time>2023-07-18T15:23:36.014+00:00</time>
      </trkpt>
      <trkpt lat="46.32353" lon="-0.45989">
        <ele>23</ele>
        <time>2023-07-18T15:23:41.022+00:00</time>
      </trkpt>
      <trkpt lat="46.32358" lon="-0.45995">
        <ele>23</ele>
        <time>2023-07-18T15:23:45.038+00:00</time>
      </trkpt>
      <trkpt lat="46.3236" lon="-0.46001">
        <ele>23</ele>
        <time>2023-07-18T15:23:49.099+00:00</time>
      </trkpt>
      <trkpt lat="46.32363" lon="-0.46008">
        <ele>23</ele>
        <time>2023-07-18T15:23:53.680+00:00</time>
      </trkpt>
      <trkpt lat="46.32366" lon="-0.46016">
        <ele>24</ele>
        <time>2023-07-18T15:23:57.940+00:00</time>
      </trkpt>
      <trkpt lat="46.32367" lon="-0.4602">
        <ele>24</ele>
        <time>2023-07-18T15:24:02.121+00:00</time>
      </trkpt>
      <trkpt lat="46.32369" lon="-0.46024">
        <ele>24</ele>
        <time>2023-07-18T15:24:06.422+00:00</time>
      </trkpt>
      <trkpt lat="46.3237" lon="-0.46028">
        <ele>24</ele>
        <time>2023-07-18T15:24:10.802+00:00</time>
      </trkpt>
      <trkpt lat="46.32371" lon="-0.46032">
        <ele>24</ele>
        <time>2023-07-18T15:24:15.122+00:00</time>
      </trkpt>
      <trkpt lat="46.32372" lon="-0.46034">
        <ele>24</ele>
        <time>2023-07-18T15:24:19.141+00:00</time>
      </trkpt>
      <trkpt lat="46.32374" lon="-0.46038">
        <ele>24</ele>
        <time>2023-07-18T15:24:23.671+00:00</time>
      </trkpt>
      <trkpt lat="46.32375" lon="-0.46041">
        <ele>24</ele>
        <time>2023-07-18T15:24:27.537+00:00</time>
      </trkpt>
      <trkpt lat="46.32377" lon="-0.46046">
        <ele>25</ele>
        <time>2023-07-18T15:24:31.615+00:00</time>
      </trkpt>
      <trkpt lat="46.3238" lon="-0.46053">
        <ele>25</ele>
        <time>2023-07-18T15:24:36.296+00:00</time>
      </trkpt>
      <trkpt lat="46.32381" lon="-0.46058">
        <ele>25</ele>
        <time>2023-07-18T15:24:40.296+00:00</time>
      </trkpt>
      <trkpt lat="46.32384" lon="-0.46064">
        <ele>25</ele>
        <time>2023-07-18T15:24:44.819+00:00</time>
      </trkpt>
      <trkpt lat="46.32385" lon="-0.46069">
        <ele>25</ele>
        <time>2023-07-18T15:24:48.784+00:00</time>
      </trkpt>
      <trkpt lat="46.32387" lon="-0.46073">
        <ele>25</ele>
        <time>2023-07-18T15:24:52.739+00:00</time>
      </trkpt>
      <trkpt lat="46.3239" lon="-0.46079">
        <ele>25</ele>
        <time>2023-07-18T15:24:57.236+00:00</time>
      </trkpt>
      <trkpt lat="46.32392" lon="-0.46085">
        <ele>25</ele>
        <time>2023-07-18T15:25:01.412+00:00</time>
      </trkpt>
      <trkpt lat="46.32394" lon="-0.46091">
        <ele>25</ele>
        <time>2023-07-18T15:25:05.470+00:00</time>
      </trkpt>
      <trkpt lat="46.32396" lon="-0.46098">
        <ele>25</ele>
        <time>2023-07-18T15:25:09.488+00:00</time>
      </trkpt>
      <trkpt lat="46.32399" lon="-0.46104">
        <ele>25</ele>
        <time>2023-07-18T15:25:13.506+00:00</time>
      </trkpt>
      <trkpt lat="46.32402" lon="-0.4611">
        <ele>25</ele>
        <time>2023-07-18T15:25:17.584+00:00</time>
      </trkpt>
      <trkpt lat="46.32404" lon="-0.46115">
        <ele>27</ele>
        <time>2023-07-18T15:25:22.141+00:00</time>
      </trkpt>
      <trkpt lat="46.32406" lon="-0.46121">
        <ele>27</ele>
        <time>2023-07-18T15:25:26.562+00:00</time>
      </trkpt>
      <trkpt lat="46.32408" lon="-0.46127">
        <ele>26</ele>
        <time>2023-07-18T15:25:31.443+00:00</time>
      </trkpt>
      <trkpt lat="46.3241" lon="-0.46131">
        <ele>26</ele>
        <time>2023-07-18T15:25:35.685+00:00</time>
      </trkpt>
      <trkpt lat="46.32413" lon="-0.46139">
        <ele>26</ele>
        <time>2023-07-18T15:25:40.205+00:00</time>
      </trkpt>
      <trkpt lat="46.32416" lon="-0.46146">
        <ele>26</ele>
        <time>2023-07-18T15:25:44.587+00:00</time>
      </trkpt>
      <trkpt lat="46.32418" lon="-0.46151">
        <ele>26</ele>
        <time>2023-07-18T15:25:48.695+00:00</time>
      </trkpt>
      <trkpt lat="46.3242" lon="-0.46155">
        <ele>25</ele>
        <time>2023-07-18T15:25:52.794+00:00</time>
      </trkpt>
      <trkpt lat="46.32423" lon="-0.4616">
        <ele>25</ele>
        <time>2023-07-18T15:25:57.299+00:00</time>
      </trkpt>
      <trkpt lat="46.32424" lon="-0.46164">
        <ele>25</ele>
        <time>2023-07-18T15:26:01.303+00:00</time>
      </trkpt>
      <trkpt lat="46.32427" lon="-0.46168">
        <ele>25</ele>
        <time>2023-07-18T15:26:05.807+00:00</time>
      </trkpt>
      <trkpt lat="46.32429" lon="-0.46172">
        <ele>25</ele>
        <time>2023-07-18T15:26:09.811+00:00</time>
      </trkpt>
      <trkpt lat="46.32431" lon="-0.46177">
        <ele>24</ele>
        <time>2023-07-18T15:26:14.418+00:00</time>
      </trkpt>
      <trkpt lat="46.32435" lon="-0.46182">
        <ele>23</ele>
        <time>2023-07-18T15:26:18.421+00:00</time>
      </trkpt>
      <trkpt lat="46.32438" lon="-0.46186">
        <ele>23</ele>
        <time>2023-07-18T15:26:22.925+00:00</time>
      </trkpt>
      <trkpt lat="46.32441" lon="-0.4619">
        <ele>23</ele>
        <time>2023-07-18T15:26:27.029+00:00</time>
      </trkpt>
      <trkpt lat="46.32444" lon="-0.46192">
        <ele>23</ele>
        <time>2023-07-18T15:26:31.056+00:00</time>
      </trkpt>
      <trkpt lat="46.32448" lon="-0.46195">
        <ele>23</ele>
        <time>2023-07-18T15:26:35.136+00:00</time>
      </trkpt>
      <trkpt lat="46.32453" lon="-0.46199">
        <ele>23</ele>
        <time>2023-07-18T15:26:39.640+00:00</time>
      </trkpt>
      <trkpt lat="46.32457" lon="-0.46203">
        <ele>23</ele>
        <time>2023-07-18T15:26:43.763+00:00</time>
      </trkpt>
      <trkpt lat="46.32461" lon="-0.46206">
        <ele>25</ele>
        <time>2023-07-18T15:26:47.826+00:00</time>
      </trkpt>
      <trkpt lat="46.32466" lon="-0.4621">
        <ele>24</ele>
        <time>2023-07-18T15:26:51.928+00:00</time>
      </trkpt>
      <trkpt lat="46.3247" lon="-0.46213">
        <ele>24</ele>
        <time>2023-07-18T15:26:56.010+00:00</time>
      </trkpt>
      <trkpt lat="46.32473" lon="-0.46216">
        <ele>24</ele>
        <time>2023-07-18T15:27:00.137+00:00</time>
      </trkpt>
      <trkpt lat="46.32476" lon="-0.46218">
        <ele>24</ele>
        <time>2023-07-18T15:27:04.177+00:00</time>
      </trkpt>
      <trkpt lat="46.32478" lon="-0.4622">
        <ele>24</ele>
        <time>2023-07-18T15:27:08.181+00:00</time>
      </trkpt>
      <trkpt lat="46.32481" lon="-0.46225">
        <ele>24</ele>
        <time>2023-07-18T15:27:12.186+00:00</time>
      </trkpt>
      <trkpt lat="46.32483" lon="-0.46229">
        <ele>24</ele>
        <time>2023-07-18T15:27:16.189+00:00</time>
      </trkpt>
      <trkpt lat="46.32487" lon="-0.46233">
        <ele>26</ele>
        <time>2023-07-18T15:27:20.391+00:00</time>
      </trkpt>
      <trkpt lat="46.32491" lon="-0.46237">
        <ele>25</ele>
        <time>2023-07-18T15:27:24.672+00:00</time>
      </trkpt>
      <trkpt lat="46.32495" lon="-0.4624">
        <ele>25</ele>
        <time>2023-07-18T15:27:28.734+00:00</time>
      </trkpt>
      <trkpt lat="46.32499" lon="-0.46244">
        <ele>25</ele>
        <time>2023-07-18T15:27:33.136+00:00</time>
      </trkpt>
      <trkpt lat="46.32504" lon="-0.46249">
        <ele>25</ele>
        <time>2023-07-18T15:27:37.977+00:00</time>
      </trkpt>
      <trkpt lat="46.32508" lon="-0.46257">
        <ele>25</ele>
        <time>2023-07-18T15:27:55.826+00:00</time>
      </trkpt>
      <trkpt lat="46.32505" lon="-0.46258">
        <ele>25</ele>
        <time>2023-07-18T15:28:00.030+00:00</time>
      </trkpt>
      <trkpt lat="46.32503" lon="-0.46255">
        <ele>25</ele>
        <time>2023-07-18T15:28:04.171+00:00</time>
      </trkpt>
      <trkpt lat="46.32501" lon="-0.46257">
        <ele>25</ele>
        <time>2023-07-18T15:28:08.814+00:00</time>
      </trkpt>
      <trkpt lat="46.325" lon="-0.46256">
        <ele>25</ele>
        <time>2023-07-18T15:28:13.897+00:00</time>
      </trkpt>
      <trkpt lat="46.32502" lon="-0.46265">
        <ele>25</ele>
        <time>2023-07-18T15:30:00.723+00:00</time>
      </trkpt>
      <trkpt lat="46.3251" lon="-0.46262">
        <ele>25</ele>
        <time>2023-07-18T15:30:05.404+00:00</time>
      </trkpt>
      <trkpt lat="46.32512" lon="-0.46262">
        <ele>25</ele>
        <time>2023-07-18T15:30:09.464+00:00</time>
      </trkpt>
      <trkpt lat="46.32513" lon="-0.4626">
        <ele>25</ele>
        <time>2023-07-18T15:30:13.625+00:00</time>
      </trkpt>
      <trkpt lat="46.32519" lon="-0.46265">
        <ele>23</ele>
        <time>2023-07-18T15:30:17.930+00:00</time>
      </trkpt>
      <trkpt lat="46.32523" lon="-0.46269">
        <ele>23</ele>
        <time>2023-07-18T15:30:22.247+00:00</time>
      </trkpt>
      <trkpt lat="46.32528" lon="-0.46275">
        <ele>23</ele>
        <time>2023-07-18T15:30:26.530+00:00</time>
      </trkpt>
      <trkpt lat="46.32532" lon="-0.46281">
        <ele>23</ele>
        <time>2023-07-18T15:30:30.870+00:00</time>
      </trkpt>
      <trkpt lat="46.32536" lon="-0.46289">
        <ele>23</ele>
        <time>2023-07-18T15:30:35.296+00:00</time>
      </trkpt>
      <trkpt lat="46.32539" lon="-0.46297">
        <ele>22</ele>
        <time>2023-07-18T15:30:39.414+00:00</time>
      </trkpt>
      <trkpt lat="46.32542" lon="-0.46304">
        <ele>23</ele>
        <time>2023-07-18T15:30:44.219+00:00</time>
      </trkpt>
      <trkpt lat="46.32545" lon="-0.46309">
        <ele>23</ele>
        <time>2023-07-18T15:30:48.456+00:00</time>
      </trkpt>
      <trkpt lat="46.32546" lon="-0.46317">
        <ele>23</ele>
        <time>2023-07-18T15:30:53.039+00:00</time>
      </trkpt>
      <trkpt lat="46.32552" lon="-0.46328">
        <ele>22</ele>
        <time>2023-07-18T15:31:13.236+00:00</time>
      </trkpt>
      <trkpt lat="46.32553" lon="-0.46334">
        <ele>22</ele>
        <time>2023-07-18T15:31:17.753+00:00</time>
      </trkpt>
      <trkpt lat="46.32557" lon="-0.46344">
        <ele>22</ele>
        <time>2023-07-18T15:31:22.268+00:00</time>
      </trkpt>
      <trkpt lat="46.32559" lon="-0.46349">
        <ele>21</ele>
        <time>2023-07-18T15:31:26.282+00:00</time>
      </trkpt>
      <trkpt lat="46.32557" lon="-0.46352">
        <ele>21</ele>
        <time>2023-07-18T15:31:30.299+00:00</time>
      </trkpt>
      <trkpt lat="46.32554" lon="-0.46355">
        <ele>21</ele>
        <time>2023-07-18T15:31:39.857+00:00</time>
      </trkpt>
      <trkpt lat="46.32554" lon="-0.46356">
        <ele>21</ele>
        <time>2023-07-18T15:31:44.478+00:00</time>
      </trkpt>
      <trkpt lat="46.32556" lon="-0.46359">
        <ele>21</ele>
        <time>2023-07-18T15:31:48.497+00:00</time>
      </trkpt>
      <trkpt lat="46.3256" lon="-0.46364">
        <ele>21</ele>
        <time>2023-07-18T15:31:52.514+00:00</time>
      </trkpt>
      <trkpt lat="46.32564" lon="-0.46368">
        <ele>21</ele>
        <time>2023-07-18T15:31:57.135+00:00</time>
      </trkpt>
      <trkpt lat="46.32569" lon="-0.46372">
        <ele>21</ele>
        <time>2023-07-18T15:32:01.252+00:00</time>
      </trkpt>
      <trkpt lat="46.32573" lon="-0.46378">
        <ele>20</ele>
        <time>2023-07-18T15:32:05.269+00:00</time>
      </trkpt>
      <trkpt lat="46.32576" lon="-0.46383">
        <ele>20</ele>
        <time>2023-07-18T15:32:09.387+00:00</time>
      </trkpt>
      <trkpt lat="46.32579" lon="-0.46388">
        <ele>20</ele>
        <time>2023-07-18T15:32:13.400+00:00</time>
      </trkpt>
      <trkpt lat="46.32581" lon="-0.46393">
        <ele>20</ele>
        <time>2023-07-18T15:32:17.919+00:00</time>
      </trkpt>
      <trkpt lat="46.32583" lon="-0.46398">
        <ele>20</ele>
        <time>2023-07-18T15:32:22.437+00:00</time>
      </trkpt>
      <trkpt lat="46.32586" lon="-0.46402">
        <ele>20</ele>
        <time>2023-07-18T15:32:26.947+00:00</time>
      </trkpt>
      <trkpt lat="46.3259" lon="-0.46408">
        <ele>20</ele>
        <time>2023-07-18T15:32:30.954+00:00</time>
      </trkpt>
      <trkpt lat="46.32592" lon="-0.46413">
        <ele>20</ele>
        <time>2023-07-18T15:32:34.959+00:00</time>
      </trkpt>
      <trkpt lat="46.32594" lon="-0.46418">
        <ele>20</ele>
        <time>2023-07-18T15:32:38.964+00:00</time>
      </trkpt>
      <trkpt lat="46.32597" lon="-0.46424">
        <ele>20</ele>
        <time>2023-07-18T15:32:43.969+00:00</time>
      </trkpt>
      <trkpt lat="46.32601" lon="-0.4643">
        <ele>20</ele>
        <time>2023-07-18T15:32:48.473+00:00</time>
      </trkpt>
      <trkpt lat="46.32604" lon="-0.46437">
        <ele>19</ele>
        <time>2023-07-18T15:32:52.476+00:00</time>
      </trkpt>
      <trkpt lat="46.32605" lon="-0.46443">
        <ele>19</ele>
        <time>2023-07-18T15:32:56.980+00:00</time>
      </trkpt>
      <trkpt lat="46.32609" lon="-0.46453">
        <ele>19</ele>
        <time>2023-07-18T15:33:01.485+00:00</time>
      </trkpt>
      <trkpt lat="46.32612" lon="-0.46461">
        <ele>18</ele>
        <time>2023-07-18T15:33:05.489+00:00</time>
      </trkpt>
      <trkpt lat="46.32612" lon="-0.46463">
        <ele>18</ele>
        <time>2023-07-18T15:33:18.199+00:00</time>
      </trkpt>
      <trkpt lat="46.32614" lon="-0.46465">
        <ele>18</ele>
        <time>2023-07-18T15:33:22.202+00:00</time>
      </trkpt>
      <trkpt lat="46.32618" lon="-0.46466">
        <ele>18</ele>
        <time>2023-07-18T15:33:26.706+00:00</time>
      </trkpt>
      <trkpt lat="46.32622" lon="-0.46467">
        <ele>18</ele>
        <time>2023-07-18T15:33:31.217+00:00</time>
      </trkpt>
      <trkpt lat="46.32623" lon="-0.46472">
        <ele>18</ele>
        <time>2023-07-18T15:33:35.731+00:00</time>
      </trkpt>
      <trkpt lat="46.32622" lon="-0.46475">
        <ele>18</ele>
        <time>2023-07-18T15:33:39.747+00:00</time>
      </trkpt>
      <trkpt lat="46.32623" lon="-0.46476">
        <ele>18</ele>
        <time>2023-07-18T15:33:43.781+00:00</time>
      </trkpt>
      <trkpt lat="46.32624" lon="-0.46474">
        <ele>18</ele>
        <time>2023-07-18T15:33:48.302+00:00</time>
      </trkpt>
      <trkpt lat="46.32621" lon="-0.46482">
        <ele>18</ele>
        <time>2023-07-18T15:33:52.820+00:00</time>
      </trkpt>
      <trkpt lat="46.32622" lon="-0.46489">
        <ele>15</ele>
        <time>2023-07-18T15:33:56.838+00:00</time>
      </trkpt>
      <trkpt lat="46.32622" lon="-0.46489">
        <ele>15</ele>
        <time>2023-07-18T15:34:00.857+00:00</time>
      </trkpt>
      <trkpt lat="46.32625" lon="-0.46488">
        <ele>15</ele>
        <time>2023-07-18T15:34:05.377+00:00</time>
      </trkpt>
      <trkpt lat="46.32629" lon="-0.46494">
        <ele>13</ele>
        <time>2023-07-18T15:34:09.897+00:00</time>
      </trkpt>
      <trkpt lat="46.32633" lon="-0.46494">
        <ele>13</ele>
        <time>2023-07-18T15:34:14.922+00:00</time>
      </trkpt>
      <trkpt lat="46.32633" lon="-0.46491">
        <ele>13</ele>
        <time>2023-07-18T15:34:18.936+00:00</time>
      </trkpt>
      <trkpt lat="46.32632" lon="-0.46491">
        <ele>13</ele>
        <time>2023-07-18T15:34:22.955+00:00</time>
      </trkpt>
      <trkpt lat="46.32632" lon="-0.46494">
        <ele>13</ele>
        <time>2023-07-18T15:34:27.475+00:00</time>
      </trkpt>
      <trkpt lat="46.32633" lon="-0.46497">
        <ele>13</ele>
        <time>2023-07-18T15:34:31.988+00:00</time>
      </trkpt>
      <trkpt lat="46.32635" lon="-0.46504">
        <ele>13</ele>
        <time>2023-07-18T15:34:36.601+00:00</time>
      </trkpt>
      <trkpt lat="46.3264" lon="-0.46511">
        <ele>13</ele>
        <time>2023-07-18T15:34:41.113+00:00</time>
      </trkpt>
      <trkpt lat="46.32644" lon="-0.46517">
        <ele>12</ele>
        <time>2023-07-18T15:34:45.622+00:00</time>
      </trkpt>
      <trkpt lat="46.32648" lon="-0.46523">
        <ele>12</ele>
        <time>2023-07-18T15:34:49.730+00:00</time>
      </trkpt>
      <trkpt lat="46.32651" lon="-0.46529">
        <ele>12</ele>
        <time>2023-07-18T15:34:53.736+00:00</time>
      </trkpt>
      <trkpt lat="46.32657" lon="-0.46542">
        <ele>13</ele>
        <time>2023-07-18T15:35:19.824+00:00</time>
      </trkpt>
      <trkpt lat="46.32658" lon="-0.46544">
        <ele>13</ele>
        <time>2023-07-18T15:35:23.845+00:00</time>
      </trkpt>
      <trkpt lat="46.32659" lon="-0.46548">
        <ele>13</ele>
        <time>2023-07-18T15:35:28.369+00:00</time>
      </trkpt>
      <trkpt lat="46.3266" lon="-0.46548">
        <ele>13</ele>
        <time>2023-07-18T15:35:32.891+00:00</time>
      </trkpt>
      <trkpt lat="46.3266" lon="-0.46549">
        <ele>13</ele>
        <time>2023-07-18T15:35:36.913+00:00</time>
      </trkpt>
      <trkpt lat="46.32661" lon="-0.46552">
        <ele>13</ele>
        <time>2023-07-18T15:35:41.036+00:00</time>
      </trkpt>
      <trkpt lat="46.32662" lon="-0.46556">
        <ele>13</ele>
        <time>2023-07-18T15:35:45.561+00:00</time>
      </trkpt>
      <trkpt lat="46.32662" lon="-0.46561">
        <ele>13</ele>
        <time>2023-07-18T15:35:49.584+00:00</time>
      </trkpt>
      <trkpt lat="46.32665" lon="-0.46565">
        <ele>13</ele>
        <time>2023-07-18T15:35:53.604+00:00</time>
      </trkpt>
      <trkpt lat="46.32667" lon="-0.46565">
        <ele>13</ele>
        <time>2023-07-18T15:35:58.131+00:00</time>
      </trkpt>
      <trkpt lat="46.32668" lon="-0.46566">
        <ele>13</ele>
        <time>2023-07-18T15:36:02.656+00:00</time>
      </trkpt>
      <trkpt lat="46.32669" lon="-0.46568">
        <ele>13</ele>
        <time>2023-07-18T15:36:06.853+00:00</time>
      </trkpt>
      <trkpt lat="46.32672" lon="-0.46574">
        <ele>14</ele>
        <time>2023-07-18T15:36:10.898+00:00</time>
      </trkpt>
      <trkpt lat="46.32676" lon="-0.4658">
        <ele>14</ele>
        <time>2023-07-18T15:36:15.420+00:00</time>
      </trkpt>
      <trkpt lat="46.32681" lon="-0.46583">
        <ele>13</ele>
        <time>2023-07-18T15:36:19.944+00:00</time>
      </trkpt>
      <trkpt lat="46.32684" lon="-0.46585">
        <ele>13</ele>
        <time>2023-07-18T15:36:23.965+00:00</time>
      </trkpt>
      <trkpt lat="46.32687" lon="-0.46593">
        <ele>13</ele>
        <time>2023-07-18T15:36:28.486+00:00</time>
      </trkpt>
      <trkpt lat="46.32687" lon="-0.46598">
        <ele>13</ele>
        <time>2023-07-18T15:36:33.006+00:00</time>
      </trkpt>
      <trkpt lat="46.32688" lon="-0.46599">
        <ele>13</ele>
        <time>2023-07-18T15:36:36.524+00:00</time>
      </trkpt>
      <trkpt lat="46.32689" lon="-0.46597">
        <ele>13</ele>
        <time>2023-07-18T15:36:41.047+00:00</time>
      </trkpt>
      <trkpt lat="46.3269" lon="-0.4659">
        <ele>13</ele>
        <time>2023-07-18T15:36:45.571+00:00</time>
      </trkpt>
      <trkpt lat="46.32693" lon="-0.46586">
        <ele>13</ele>
        <time>2023-07-18T15:36:49.592+00:00</time>
      </trkpt>
      <trkpt lat="46.32698" lon="-0.46586">
        <ele>13</ele>
        <time>2023-07-18T15:37:16.226+00:00</time>
      </trkpt>
      <trkpt lat="46.32699" lon="-0.46579">
        <ele>13</ele>
        <time>2023-07-18T15:37:20.750+00:00</time>
      </trkpt>
      <trkpt lat="46.32701" lon="-0.46575">
        <ele>13</ele>
        <time>2023-07-18T15:37:24.770+00:00</time>
      </trkpt>
      <trkpt lat="46.32703" lon="-0.46574">
        <ele>13</ele>
        <time>2023-07-18T15:37:28.791+00:00</time>
      </trkpt>
      <trkpt lat="46.32703" lon="-0.46573">
        <ele>13</ele>
        <time>2023-07-18T15:37:33.817+00:00</time>
      </trkpt>
      <trkpt lat="46.32699" lon="-0.46573">
        <ele>13</ele>
        <time>2023-07-18T15:37:37.932+00:00</time>
      </trkpt>
      <trkpt lat="46.32693" lon="-0.46575">
        <ele>13</ele>
        <time>2023-07-18T15:37:41.945+00:00</time>
      </trkpt>
      <trkpt lat="46.32686" lon="-0.46572">
        <ele>13</ele>
        <time>2023-07-18T15:37:46.957+00:00</time>
      </trkpt>
      <trkpt lat="46.32686" lon="-0.46571">
        <ele>13</ele>
        <time>2023-07-18T15:37:50.966+00:00</time>
      </trkpt>
      <trkpt lat="46.32682" lon="-0.46572">
        <ele>13</ele>
        <time>2023-07-18T15:38:07.529+00:00</time>
      </trkpt>
      <trkpt lat="46.32681" lon="-0.46568">
        <ele>12</ele>
        <time>2023-07-18T15:38:13.656+00:00</time>
      </trkpt>
      <trkpt lat="46.32681" lon="-0.46567">
        <ele>12</ele>
        <time>2023-07-18T15:38:17.674+00:00</time>
      </trkpt>
      <trkpt lat="46.32679" lon="-0.4657">
        <ele>14</ele>
        <time>2023-07-18T15:38:22.719+00:00</time>
      </trkpt>
      <trkpt lat="46.32677" lon="-0.4658">
        <ele>14</ele>
        <time>2023-07-18T15:38:27.233+00:00</time>
      </trkpt>
      <trkpt lat="46.32676" lon="-0.46587">
        <ele>14</ele>
        <time>2023-07-18T15:38:31.744+00:00</time>
      </trkpt>
      <trkpt lat="46.32677" lon="-0.46587">
        <ele>14</ele>
        <time>2023-07-18T15:38:36.757+00:00</time>
      </trkpt>
      <trkpt lat="46.32676" lon="-0.4659">
        <ele>14</ele>
        <time>2023-07-18T15:38:40.766+00:00</time>
      </trkpt>
      <trkpt lat="46.32675" lon="-0.46597">
        <ele>14</ele>
        <time>2023-07-18T15:38:44.776+00:00</time>
      </trkpt>
      <trkpt lat="46.32675" lon="-0.46605">
        <ele>15</ele>
        <time>2023-07-18T15:38:49.285+00:00</time>
      </trkpt>
      <trkpt lat="46.32677" lon="-0.46612">
        <ele>15</ele>
        <time>2023-07-18T15:38:53.795+00:00</time>
      </trkpt>
      <trkpt lat="46.32676" lon="-0.46619">
        <ele>15</ele>
        <time>2023-07-18T15:38:58.303+00:00</time>
      </trkpt>
      <trkpt lat="46.32675" lon="-0.46624">
        <ele>15</ele>
        <time>2023-07-18T15:39:02.416+00:00</time>
      </trkpt>
      <trkpt lat="46.32675" lon="-0.46628">
        <ele>15</ele>
        <time>2023-07-18T15:39:06.524+00:00</time>
      </trkpt>
      <trkpt lat="46.32678" lon="-0.46629">
        <ele>15</ele>
        <time>2023-07-18T15:39:11.035+00:00</time>
      </trkpt>
      <trkpt lat="46.32681" lon="-0.46626">
        <ele>13</ele>
        <time>2023-07-18T15:39:15.545+00:00</time>
      </trkpt>
      <trkpt lat="46.32685" lon="-0.46623">
        <ele>13</ele>
        <time>2023-07-18T15:39:19.654+00:00</time>
      </trkpt>
      <trkpt lat="46.32689" lon="-0.46619">
        <ele>13</ele>
        <time>2023-07-18T15:39:27.685+00:00</time>
      </trkpt>
      <trkpt lat="46.32688" lon="-0.46621">
        <ele>13</ele>
        <time>2023-07-18T15:39:36.213+00:00</time>
      </trkpt>
      <trkpt lat="46.32688" lon="-0.46623">
        <ele>13</ele>
        <time>2023-07-18T15:39:39.721+00:00</time>
      </trkpt>
      <trkpt lat="46.32687" lon="-0.46624">
        <ele>13</ele>
        <time>2023-07-18T15:39:47.752+00:00</time>
      </trkpt>
      <trkpt lat="46.32686" lon="-0.46625">
        <ele>13</ele>
        <time>2023-07-18T15:39:48.755+00:00</time>
      </trkpt>
      <trkpt lat="46.32679" lon="-0.46631">
        <ele>15</ele>
        <time>2023-07-18T15:39:57.291+00:00</time>
      </trkpt>
      <trkpt lat="46.32672" lon="-0.46633">
        <ele>15</ele>
        <time>2023-07-18T15:40:01.809+00:00</time>
      </trkpt>
      <trkpt lat="46.32667" lon="-0.46634">
        <ele>15</ele>
        <time>2023-07-18T15:40:06.427+00:00</time>
      </trkpt>
      <trkpt lat="46.32663" lon="-0.46637">
        <ele>15</ele>
        <time>2023-07-18T15:40:10.443+00:00</time>
      </trkpt>
      <trkpt lat="46.3266" lon="-0.46639">
        <ele>15</ele>
        <time>2023-07-18T15:40:15.061+00:00</time>
      </trkpt>
      <trkpt lat="46.32656" lon="-0.46641">
        <ele>15</ele>
        <time>2023-07-18T15:40:19.681+00:00</time>
      </trkpt>
      <trkpt lat="46.32653" lon="-0.46647">
        <ele>15</ele>
        <time>2023-07-18T15:40:23.797+00:00</time>
      </trkpt>
      <trkpt lat="46.3265" lon="-0.46653">
        <ele>16</ele>
        <time>2023-07-18T15:40:28.415+00:00</time>
      </trkpt>
      <trkpt lat="46.32649" lon="-0.46662">
        <ele>16</ele>
        <time>2023-07-18T15:40:33.034+00:00</time>
      </trkpt>
      <trkpt lat="46.32648" lon="-0.46669">
        <ele>16</ele>
        <time>2023-07-18T15:40:37.553+00:00</time>
      </trkpt>
      <trkpt lat="46.32647" lon="-0.46674">
        <ele>16</ele>
        <time>2023-07-18T15:40:41.571+00:00</time>
      </trkpt>
      <trkpt lat="46.32647" lon="-0.46678">
        <ele>16</ele>
        <time>2023-07-18T15:40:46.090+00:00</time>
      </trkpt>
      <trkpt lat="46.32644" lon="-0.46678">
        <ele>16</ele>
        <time>2023-07-18T15:40:50.613+00:00</time>
      </trkpt>
      <trkpt lat="46.32643" lon="-0.46682">
        <ele>15</ele>
        <time>2023-07-18T15:40:55.642+00:00</time>
      </trkpt>
      <trkpt lat="46.32642" lon="-0.46684">
        <ele>15</ele>
        <time>2023-07-18T15:41:14.008+00:00</time>
      </trkpt>
      <trkpt lat="46.32642" lon="-0.46687">
        <ele>15</ele>
        <time>2023-07-18T15:41:18.997+00:00</time>
      </trkpt>
      <trkpt lat="46.32642" lon="-0.46687">
        <ele>15</ele>
        <time>2023-07-18T15:41:22.790+00:00</time>
      </trkpt>
      <trkpt lat="46.3264" lon="-0.46691">
        <ele>15</ele>
        <time>2023-07-18T15:41:26.812+00:00</time>
      </trkpt>
      <trkpt lat="46.32635" lon="-0.46695">
        <ele>15</ele>
        <time>2023-07-18T15:41:31.351+00:00</time>
      </trkpt>
      <trkpt lat="46.32631" lon="-0.46698">
        <ele>15</ele>
        <time>2023-07-18T15:41:35.875+00:00</time>
      </trkpt>
      <trkpt lat="46.32631" lon="-0.46696">
        <ele>15</ele>
        <time>2023-07-18T15:41:39.897+00:00</time>
      </trkpt>
      <trkpt lat="46.32627" lon="-0.46702">
        <ele>15</ele>
        <time>2023-07-18T15:41:44.920+00:00</time>
      </trkpt>
      <trkpt lat="46.32624" lon="-0.46705">
        <ele>15</ele>
        <time>2023-07-18T15:41:49.440+00:00</time>
      </trkpt>
      <trkpt lat="46.32624" lon="-0.46706">
        <ele>15</ele>
        <time>2023-07-18T15:41:53.455+00:00</time>
      </trkpt>
      <trkpt lat="46.32621" lon="-0.46704">
        <ele>15</ele>
        <time>2023-07-18T15:41:57.969+00:00</time>
      </trkpt>
      <trkpt lat="46.32618" lon="-0.467">
        <ele>15</ele>
        <time>2023-07-18T15:42:01.983+00:00</time>
      </trkpt>
      <trkpt lat="46.32611" lon="-0.46691">
        <ele>15</ele>
        <time>2023-07-18T15:42:06.498+00:00</time>
      </trkpt>
      <trkpt lat="46.32607" lon="-0.46685">
        <ele>15</ele>
        <time>2023-07-18T15:42:11.015+00:00</time>
      </trkpt>
      <trkpt lat="46.32603" lon="-0.46681">
        <ele>15</ele>
        <time>2023-07-18T15:42:15.532+00:00</time>
      </trkpt>
      <trkpt lat="46.32599" lon="-0.46679">
        <ele>15</ele>
        <time>2023-07-18T15:42:19.544+00:00</time>
      </trkpt>
      <trkpt lat="46.32594" lon="-0.46677">
        <ele>15</ele>
        <time>2023-07-18T15:42:24.657+00:00</time>
      </trkpt>
      <trkpt lat="46.3259" lon="-0.46668">
        <ele>15</ele>
        <time>2023-07-18T15:42:33.678+00:00</time>
      </trkpt>
      <trkpt lat="46.3259" lon="-0.46665">
        <ele>15</ele>
        <time>2023-07-18T15:42:37.689+00:00</time>
      </trkpt>
      <trkpt lat="46.32591" lon="-0.46664">
        <ele>15</ele>
        <time>2023-07-18T15:42:42.204+00:00</time>
      </trkpt>
      <trkpt lat="46.32592" lon="-0.46662">
        <ele>15</ele>
        <time>2023-07-18T15:42:46.723+00:00</time>
      </trkpt>
      <trkpt lat="46.32591" lon="-0.46659">
        <ele>15</ele>
        <time>2023-07-18T15:42:51.346+00:00</time>
      </trkpt>
      <trkpt lat="46.32588" lon="-0.46656">
        <ele>15</ele>
        <time>2023-07-18T15:42:59.887+00:00</time>
      </trkpt>
      <trkpt lat="46.32586" lon="-0.46657">
        <ele>15</ele>
        <time>2023-07-18T15:43:04.913+00:00</time>
      </trkpt>
      <trkpt lat="46.32584" lon="-0.46658">
        <ele>15</ele>
        <time>2023-07-18T15:43:08.934+00:00</time>
      </trkpt>
      <trkpt lat="46.32582" lon="-0.4666">
        <ele>15</ele>
        <time>2023-07-18T15:43:12.953+00:00</time>
      </trkpt>
      <trkpt lat="46.3258" lon="-0.46664">
        <ele>15</ele>
        <time>2023-07-18T15:43:17.479+00:00</time>
      </trkpt>
      <trkpt lat="46.32574" lon="-0.46668">
        <ele>15</ele>
        <time>2023-07-18T15:43:21.500+00:00</time>
      </trkpt>
      <trkpt lat="46.32574" lon="-0.46665">
        <ele>15</ele>
        <time>2023-07-18T15:43:26.024+00:00</time>
      </trkpt>
      <trkpt lat="46.32575" lon="-0.46663">
        <ele>15</ele>
        <time>2023-07-18T15:43:29.544+00:00</time>
      </trkpt>
      <trkpt lat="46.32566" lon="-0.46674">
        <ele>14</ele>
        <time>2023-07-18T15:43:38.592+00:00</time>
      </trkpt>
      <trkpt lat="46.32563" lon="-0.46682">
        <ele>16</ele>
        <time>2023-07-18T15:44:29.329+00:00</time>
      </trkpt>
      <trkpt lat="46.32559" lon="-0.4668">
        <ele>14</ele>
        <time>2023-07-18T15:44:33.939+00:00</time>
      </trkpt>
      <trkpt lat="46.32557" lon="-0.46672">
        <ele>14</ele>
        <time>2023-07-18T15:44:37.946+00:00</time>
      </trkpt>
      <trkpt lat="46.32555" lon="-0.46666">
        <ele>14</ele>
        <time>2023-07-18T15:44:41.955+00:00</time>
      </trkpt>
      <trkpt lat="46.32552" lon="-0.4666">
        <ele>14</ele>
        <time>2023-07-18T15:44:45.966+00:00</time>
      </trkpt>
      <trkpt lat="46.3255" lon="-0.46655">
        <ele>14</ele>
        <time>2023-07-18T15:44:49.575+00:00</time>
      </trkpt>
      <trkpt lat="46.32549" lon="-0.46649">
        <ele>14</ele>
        <time>2023-07-18T15:44:53.584+00:00</time>
      </trkpt>
      <trkpt lat="46.32547" lon="-0.46645">
        <ele>14</ele>
        <time>2023-07-18T15:44:58.093+00:00</time>
      </trkpt>
      <trkpt lat="46.32547" lon="-0.46643">
        <ele>14</ele>
        <time>2023-07-18T15:45:02.602+00:00</time>
      </trkpt>
      <trkpt lat="46.32543" lon="-0.46631">
        <ele>14</ele>
        <time>2023-07-18T15:45:25.213+00:00</time>
      </trkpt>
      <trkpt lat="46.3254" lon="-0.46626">
        <ele>14</ele>
        <time>2023-07-18T15:45:29.753+00:00</time>
      </trkpt>
      <trkpt lat="46.32538" lon="-0.46618">
        <ele>16</ele>
        <time>2023-07-18T15:45:33.772+00:00</time>
      </trkpt>
      <trkpt lat="46.32535" lon="-0.4661">
        <ele>16</ele>
        <time>2023-07-18T15:45:38.289+00:00</time>
      </trkpt>
      <trkpt lat="46.32532" lon="-0.46605">
        <ele>16</ele>
        <time>2023-07-18T15:45:41.300+00:00</time>
      </trkpt>
      <trkpt lat="46.32528" lon="-0.46599">
        <ele>16</ele>
        <time>2023-07-18T15:45:47.322+00:00</time>
      </trkpt>
      <trkpt lat="46.32524" lon="-0.46602">
        <ele>16</ele>
        <time>2023-07-18T15:45:50.833+00:00</time>
      </trkpt>
      <trkpt lat="46.3252" lon="-0.46608">
        <ele>16</ele>
        <time>2023-07-18T15:45:55.850+00:00</time>
      </trkpt>
      <trkpt lat="46.32519" lon="-0.46608">
        <ele>16</ele>
        <time>2023-07-18T15:45:59.863+00:00</time>
      </trkpt>
      <trkpt lat="46.32516" lon="-0.46613">
        <ele>16</ele>
        <time>2023-07-18T15:46:04.375+00:00</time>
      </trkpt>
      <trkpt lat="46.32515" lon="-0.46625">
        <ele>14</ele>
        <time>2023-07-18T15:46:08.884+00:00</time>
      </trkpt>
      <trkpt lat="46.32513" lon="-0.46634">
        <ele>15</ele>
        <time>2023-07-18T15:46:12.895+00:00</time>
      </trkpt>
      <trkpt lat="46.32512" lon="-0.46641">
        <ele>15</ele>
        <time>2023-07-18T15:46:16.906+00:00</time>
      </trkpt>
      <trkpt lat="46.32508" lon="-0.46644">
        <ele>15</ele>
        <time>2023-07-18T15:46:20.915+00:00</time>
      </trkpt>
      <trkpt lat="46.32503" lon="-0.46644">
        <ele>15</ele>
        <time>2023-07-18T15:46:25.925+00:00</time>
      </trkpt>
      <trkpt lat="46.325" lon="-0.46648">
        <ele>15</ele>
        <time>2023-07-18T15:46:29.949+00:00</time>
      </trkpt>
      <trkpt lat="46.32498" lon="-0.46652">
        <ele>15</ele>
        <time>2023-07-18T15:46:34.056+00:00</time>
      </trkpt>
      <trkpt lat="46.32488" lon="-0.46656">
        <ele>15</ele>
        <time>2023-07-18T15:47:59.009+00:00</time>
      </trkpt>
      <trkpt lat="46.32488" lon="-0.46657">
        <ele>15</ele>
        <time>2023-07-18T15:48:03.017+00:00</time>
      </trkpt>
      <trkpt lat="46.32488" lon="-0.46657">
        <ele>15</ele>
        <time>2023-07-18T15:48:07.014+00:00</time>
      </trkpt>
      <trkpt lat="46.32487" lon="-0.4666">
        <ele>15</ele>
        <time>2023-07-18T15:48:11.970+00:00</time>
      </trkpt>
      <trkpt lat="46.32487" lon="-0.46663">
        <ele>15</ele>
        <time>2023-07-18T15:48:16.473+00:00</time>
      </trkpt>
      <trkpt lat="46.32485" lon="-0.46669">
        <ele>20</ele>
        <time>2023-07-18T15:48:20.975+00:00</time>
      </trkpt>
      <trkpt lat="46.32482" lon="-0.46675">
        <ele>20</ele>
        <time>2023-07-18T15:48:25.057+00:00</time>
      </trkpt>
      <trkpt lat="46.32479" lon="-0.46682">
        <ele>17</ele>
        <time>2023-07-18T15:48:29.059+00:00</time>
      </trkpt>
      <trkpt lat="46.32475" lon="-0.4669">
        <ele>17</ele>
        <time>2023-07-18T15:48:33.160+00:00</time>
      </trkpt>
      <trkpt lat="46.32472" lon="-0.46697">
        <ele>17</ele>
        <time>2023-07-18T15:48:37.783+00:00</time>
      </trkpt>
      <trkpt lat="46.3247" lon="-0.467">
        <ele>17</ele>
        <time>2023-07-18T15:48:41.884+00:00</time>
      </trkpt>
      <trkpt lat="46.32466" lon="-0.46706">
        <ele>17</ele>
        <time>2023-07-18T15:48:46.425+00:00</time>
      </trkpt>
      <trkpt lat="46.32464" lon="-0.46712">
        <ele>14</ele>
        <time>2023-07-18T15:48:50.988+00:00</time>
      </trkpt>
      <trkpt lat="46.32461" lon="-0.46718">
        <ele>14</ele>
        <time>2023-07-18T15:48:55.108+00:00</time>
      </trkpt>
      <trkpt lat="46.32458" lon="-0.46724">
        <ele>16</ele>
        <time>2023-07-18T15:48:59.368+00:00</time>
      </trkpt>
      <trkpt lat="46.32455" lon="-0.4673">
        <ele>16</ele>
        <time>2023-07-18T15:49:03.967+00:00</time>
      </trkpt>
      <trkpt lat="46.32452" lon="-0.46736">
        <ele>16</ele>
        <time>2023-07-18T15:49:09.024+00:00</time>
      </trkpt>
      <trkpt lat="46.3245" lon="-0.4674">
        <ele>13</ele>
        <time>2023-07-18T15:49:13.628+00:00</time>
      </trkpt>
      <trkpt lat="46.32445" lon="-0.46746">
        <ele>13</ele>
        <time>2023-07-18T15:49:18.744+00:00</time>
      </trkpt>
      <trkpt lat="46.32442" lon="-0.46752">
        <ele>13</ele>
        <time>2023-07-18T15:49:23.123+00:00</time>
      </trkpt>
      <trkpt lat="46.32439" lon="-0.46758">
        <ele>13</ele>
        <time>2023-07-18T15:49:27.623+00:00</time>
      </trkpt>
      <trkpt lat="46.32436" lon="-0.46765">
        <ele>12</ele>
        <time>2023-07-18T15:49:32.140+00:00</time>
      </trkpt>
      <trkpt lat="46.32433" lon="-0.46772">
        <ele>12</ele>
        <time>2023-07-18T15:49:36.659+00:00</time>
      </trkpt>
      <trkpt lat="46.32434" lon="-0.46777">
        <ele>12</ele>
        <time>2023-07-18T15:49:41.199+00:00</time>
      </trkpt>
      <trkpt lat="46.32439" lon="-0.46782">
        <ele>12</ele>
        <time>2023-07-18T15:49:45.117+00:00</time>
      </trkpt>
      <trkpt lat="46.32445" lon="-0.46783">
        <ele>12</ele>
        <time>2023-07-18T15:49:58.680+00:00</time>
      </trkpt>
      <trkpt lat="46.32445" lon="-0.46784">
        <ele>12</ele>
        <time>2023-07-18T15:50:03.474+00:00</time>
      </trkpt>
      <trkpt lat="46.32452" lon="-0.46784">
        <ele>12</ele>
        <time>2023-07-18T15:50:07.517+00:00</time>
      </trkpt>
      <trkpt lat="46.32459" lon="-0.46786">
        <ele>11</ele>
        <time>2023-07-18T15:50:11.626+00:00</time>
      </trkpt>
      <trkpt lat="46.32462" lon="-0.46796">
        <ele>12</ele>
        <time>2023-07-18T15:50:16.134+00:00</time>
      </trkpt>
      <trkpt lat="46.32461" lon="-0.46806">
        <ele>12</ele>
        <time>2023-07-18T15:50:20.140+00:00</time>
      </trkpt>
      <trkpt lat="46.32462" lon="-0.46814">
        <ele>12</ele>
        <time>2023-07-18T15:50:24.144+00:00</time>
      </trkpt>
      <trkpt lat="46.32461" lon="-0.46822">
        <ele>12</ele>
        <time>2023-07-18T15:50:28.647+00:00</time>
      </trkpt>
      <trkpt lat="46.32462" lon="-0.46826">
        <ele>12</ele>
        <time>2023-07-18T15:50:32.752+00:00</time>
      </trkpt>
      <trkpt lat="46.32462" lon="-0.46831">
        <ele>12</ele>
        <time>2023-07-18T15:50:36.857+00:00</time>
      </trkpt>
      <trkpt lat="46.3246" lon="-0.46832">
        <ele>12</ele>
        <time>2023-07-18T15:50:41.021+00:00</time>
      </trkpt>
      <trkpt lat="46.32464" lon="-0.46841">
        <ele>12</ele>
        <time>2023-07-18T15:50:45.665+00:00</time>
      </trkpt>
      <trkpt lat="46.32464" lon="-0.46854">
        <ele>12</ele>
        <time>2023-07-18T15:50:49.668+00:00</time>
      </trkpt>
      <trkpt lat="46.32465" lon="-0.46861">
        <ele>12</ele>
        <time>2023-07-18T15:50:53.772+00:00</time>
      </trkpt>
      <trkpt lat="46.32471" lon="-0.46862">
        <ele>12</ele>
        <time>2023-07-18T15:50:58.275+00:00</time>
      </trkpt>
      <trkpt lat="46.32478" lon="-0.46859">
        <ele>12</ele>
        <time>2023-07-18T15:51:02.778+00:00</time>
      </trkpt>
      <trkpt lat="46.32484" lon="-0.4686">
        <ele>12</ele>
        <time>2023-07-18T15:51:04.892+00:00</time>
      </trkpt>
      <trkpt lat="46.3249" lon="-0.46868">
        <ele>14</ele>
        <time>2023-07-18T15:51:21.745+00:00</time>
      </trkpt>
      <trkpt lat="46.32489" lon="-0.46869">
        <ele>14</ele>
        <time>2023-07-18T15:51:26.867+00:00</time>
      </trkpt>
      <trkpt lat="46.32491" lon="-0.46874">
        <ele>14</ele>
        <time>2023-07-18T15:51:30.885+00:00</time>
      </trkpt>
      <trkpt lat="46.32493" lon="-0.46878">
        <ele>14</ele>
        <time>2023-07-18T15:51:35.102+00:00</time>
      </trkpt>
      <trkpt lat="46.32493" lon="-0.46882">
        <ele>14</ele>
        <time>2023-07-18T15:51:39.116+00:00</time>
      </trkpt>
      <trkpt lat="46.32495" lon="-0.46891">
        <ele>14</ele>
        <time>2023-07-18T15:51:56.184+00:00</time>
      </trkpt>
      <trkpt lat="46.32496" lon="-0.46893">
        <ele>14</ele>
        <time>2023-07-18T15:52:00.301+00:00</time>
      </trkpt>
      <trkpt lat="46.32494" lon="-0.469">
        <ele>14</ele>
        <time>2023-07-18T15:52:04.319+00:00</time>
      </trkpt>
      <trkpt lat="46.32494" lon="-0.46909">
        <ele>13</ele>
        <time>2023-07-18T15:52:08.838+00:00</time>
      </trkpt>
      <trkpt lat="46.32498" lon="-0.46913">
        <ele>13</ele>
        <time>2023-07-18T15:52:13.356+00:00</time>
      </trkpt>
      <trkpt lat="46.32497" lon="-0.4692">
        <ele>13</ele>
        <time>2023-07-18T15:52:49.725+00:00</time>
      </trkpt>
      <trkpt lat="46.32496" lon="-0.46923">
        <ele>13</ele>
        <time>2023-07-18T15:52:54.247+00:00</time>
      </trkpt>
      <trkpt lat="46.32492" lon="-0.46925">
        <ele>13</ele>
        <time>2023-07-18T15:52:58.769+00:00</time>
      </trkpt>
      <trkpt lat="46.32491" lon="-0.46923">
        <ele>13</ele>
        <time>2023-07-18T15:53:03.793+00:00</time>
      </trkpt>
      <trkpt lat="46.32487" lon="-0.46922">
        <ele>13</ele>
        <time>2023-07-18T15:53:08.832+00:00</time>
      </trkpt>
      <trkpt lat="46.32483" lon="-0.46916">
        <ele>14</ele>
        <time>2023-07-18T15:53:12.850+00:00</time>
      </trkpt>
      <trkpt lat="46.32479" lon="-0.46909">
        <ele>14</ele>
        <time>2023-07-18T15:53:16.868+00:00</time>
      </trkpt>
      <trkpt lat="46.32479" lon="-0.46905">
        <ele>14</ele>
        <time>2023-07-18T15:53:21.389+00:00</time>
      </trkpt>
      <trkpt lat="46.32476" lon="-0.46902">
        <ele>13</ele>
        <time>2023-07-18T15:53:25.410+00:00</time>
      </trkpt>
      <trkpt lat="46.3247" lon="-0.46901">
        <ele>13</ele>
        <time>2023-07-18T15:53:30.033+00:00</time>
      </trkpt>
      <trkpt lat="46.32463" lon="-0.46906">
        <ele>14</ele>
        <time>2023-07-18T15:53:34.555+00:00</time>
      </trkpt>
      <trkpt lat="46.32459" lon="-0.46908">
        <ele>14</ele>
        <time>2023-07-18T15:53:39.176+00:00</time>
      </trkpt>
      <trkpt lat="46.32455" lon="-0.46908">
        <ele>16</ele>
        <time>2023-07-18T15:53:43.696+00:00</time>
      </trkpt>
      <trkpt lat="46.32451" lon="-0.46906">
        <ele>16</ele>
        <time>2023-07-18T15:53:48.517+00:00</time>
      </trkpt>
      <trkpt lat="46.32448" lon="-0.46899">
        <ele>14</ele>
        <time>2023-07-18T15:53:52.637+00:00</time>
      </trkpt>
      <trkpt lat="46.32442" lon="-0.46896">
        <ele>14</ele>
        <time>2023-07-18T15:53:57.262+00:00</time>
      </trkpt>
      <trkpt lat="46.32441" lon="-0.46898">
        <ele>14</ele>
        <time>2023-07-18T15:54:01.788+00:00</time>
      </trkpt>
      <trkpt lat="46.32442" lon="-0.46898">
        <ele>14</ele>
        <time>2023-07-18T15:54:05.809+00:00</time>
      </trkpt>
      <trkpt lat="46.32442" lon="-0.46901">
        <ele>14</ele>
        <time>2023-07-18T15:54:10.336+00:00</time>
      </trkpt>
      <trkpt lat="46.32439" lon="-0.46902">
        <ele>14</ele>
        <time>2023-07-18T15:54:14.863+00:00</time>
      </trkpt>
      <trkpt lat="46.32438" lon="-0.46895">
        <ele>14</ele>
        <time>2023-07-18T15:54:18.585+00:00</time>
      </trkpt>
      <trkpt lat="46.32436" lon="-0.46887">
        <ele>14</ele>
        <time>2023-07-18T15:54:23.109+00:00</time>
      </trkpt>
      <trkpt lat="46.32435" lon="-0.46883">
        <ele>14</ele>
        <time>2023-07-18T15:54:27.652+00:00</time>
      </trkpt>
      <trkpt lat="46.32436" lon="-0.46886">
        <ele>14</ele>
        <time>2023-07-18T15:54:31.770+00:00</time>
      </trkpt>
      <trkpt lat="46.32433" lon="-0.46886">
        <ele>14</ele>
        <time>2023-07-18T15:54:36.388+00:00</time>
      </trkpt>
      <trkpt lat="46.32438" lon="-0.46867">
        <ele>13</ele>
        <time>2023-07-18T15:54:40.400+00:00</time>
      </trkpt>
      <trkpt lat="46.3244" lon="-0.46859">
        <ele>13</ele>
        <time>2023-07-18T15:54:44.511+00:00</time>
      </trkpt>
      <trkpt lat="46.32443" lon="-0.46857">
        <ele>13</ele>
        <time>2023-07-18T15:54:49.021+00:00</time>
      </trkpt>
      <trkpt lat="46.32445" lon="-0.46862">
        <ele>13</ele>
        <time>2023-07-18T15:54:53.029+00:00</time>
      </trkpt>
      <trkpt lat="46.32452" lon="-0.46862">
        <ele>13</ele>
        <time>2023-07-18T15:55:01.868+00:00</time>
      </trkpt>
      <trkpt lat="46.32455" lon="-0.46861">
        <ele>13</ele>
        <time>2023-07-18T15:55:19.556+00:00</time>
      </trkpt>
      <trkpt lat="46.32455" lon="-0.46861">
        <ele>13</ele>
        <time>2023-07-18T15:55:23.576+00:00</time>
      </trkpt>
      <trkpt lat="46.32458" lon="-0.46862">
        <ele>13</ele>
        <time>2023-07-18T15:55:28.306+00:00</time>
      </trkpt>
      <trkpt lat="46.32462" lon="-0.46854">
        <ele>12</ele>
        <time>2023-07-18T15:55:32.825+00:00</time>
      </trkpt>
      <trkpt lat="46.32462" lon="-0.46847">
        <ele>12</ele>
        <time>2023-07-18T15:55:36.836+00:00</time>
      </trkpt>
      <trkpt lat="46.32462" lon="-0.46842">
        <ele>12</ele>
        <time>2023-07-18T15:55:41.850+00:00</time>
      </trkpt>
      <trkpt lat="46.3246" lon="-0.46833">
        <ele>12</ele>
        <time>2023-07-18T15:55:45.860+00:00</time>
      </trkpt>
      <trkpt lat="46.32461" lon="-0.46825">
        <ele>12</ele>
        <time>2023-07-18T15:55:49.871+00:00</time>
      </trkpt>
      <trkpt lat="46.32462" lon="-0.46818">
        <ele>12</ele>
        <time>2023-07-18T15:55:54.483+00:00</time>
      </trkpt>
      <trkpt lat="46.32465" lon="-0.46812">
        <ele>12</ele>
        <time>2023-07-18T15:55:58.992+00:00</time>
      </trkpt>
      <trkpt lat="46.32464" lon="-0.46811">
        <ele>12</ele>
        <time>2023-07-18T15:56:03+00:00</time>
      </trkpt>
      <trkpt lat="46.32463" lon="-0.46806">
        <ele>12</ele>
        <time>2023-07-18T15:56:07.208+00:00</time>
      </trkpt>
      <trkpt lat="46.32464" lon="-0.468">
        <ele>12</ele>
        <time>2023-07-18T15:56:11.217+00:00</time>
      </trkpt>
      <trkpt lat="46.32453" lon="-0.46798">
        <ele>11</ele>
        <time>2023-07-18T15:56:15.727+00:00</time>
      </trkpt>
      <trkpt lat="46.32446" lon="-0.46798">
        <ele>11</ele>
        <time>2023-07-18T15:56:19.837+00:00</time>
      </trkpt>
      <trkpt lat="46.32441" lon="-0.46797">
        <ele>11</ele>
        <time>2023-07-18T15:56:24.346+00:00</time>
      </trkpt>
      <trkpt lat="46.32436" lon="-0.46795">
        <ele>11</ele>
        <time>2023-07-18T15:56:28.455+00:00</time>
      </trkpt>
      <trkpt lat="46.32431" lon="-0.46794">
        <ele>11</ele>
        <time>2023-07-18T15:56:32.461+00:00</time>
      </trkpt>
      <trkpt lat="46.32426" lon="-0.46792">
        <ele>13</ele>
        <time>2023-07-18T15:56:37.268+00:00</time>
      </trkpt>
      <trkpt lat="46.3242" lon="-0.46789">
        <ele>14</ele>
        <time>2023-07-18T15:56:41.274+00:00</time>
      </trkpt>
      <trkpt lat="46.32416" lon="-0.46787">
        <ele>14</ele>
        <time>2023-07-18T15:56:45.780+00:00</time>
      </trkpt>
      <trkpt lat="46.32411" lon="-0.46786">
        <ele>14</ele>
        <time>2023-07-18T15:56:50.485+00:00</time>
      </trkpt>
      <trkpt lat="46.32408" lon="-0.46793">
        <ele>13</ele>
        <time>2023-07-18T15:56:54.990+00:00</time>
      </trkpt>
      <trkpt lat="46.32405" lon="-0.46799">
        <ele>13</ele>
        <time>2023-07-18T15:56:59.498+00:00</time>
      </trkpt>
      <trkpt lat="46.32401" lon="-0.46801">
        <ele>18</ele>
        <time>2023-07-18T15:57:04.005+00:00</time>
      </trkpt>
      <trkpt lat="46.32396" lon="-0.46801">
        <ele>18</ele>
        <time>2023-07-18T15:57:08.011+00:00</time>
      </trkpt>
      <trkpt lat="46.32392" lon="-0.46801">
        <ele>18</ele>
        <time>2023-07-18T15:57:12.034+00:00</time>
      </trkpt>
      <trkpt lat="46.32386" lon="-0.46793">
        <ele>18</ele>
        <time>2023-07-18T15:57:16.660+00:00</time>
      </trkpt>
      <trkpt lat="46.32382" lon="-0.46789">
        <ele>19</ele>
        <time>2023-07-18T15:57:20.664+00:00</time>
      </trkpt>
      <trkpt lat="46.32378" lon="-0.46785">
        <ele>19</ele>
        <time>2023-07-18T15:57:25.671+00:00</time>
      </trkpt>
      <trkpt lat="46.32375" lon="-0.46782">
        <ele>22</ele>
        <time>2023-07-18T15:57:29.675+00:00</time>
      </trkpt>
      <trkpt lat="46.32372" lon="-0.46779">
        <ele>22</ele>
        <time>2023-07-18T15:57:34.180+00:00</time>
      </trkpt>
      <trkpt lat="46.32369" lon="-0.46775">
        <ele>22</ele>
        <time>2023-07-18T15:57:38.203+00:00</time>
      </trkpt>
      <trkpt lat="46.32366" lon="-0.46773">
        <ele>22</ele>
        <time>2023-07-18T15:57:42.707+00:00</time>
      </trkpt>
      <trkpt lat="46.3236" lon="-0.46769">
        <ele>22</ele>
        <time>2023-07-18T15:57:46.813+00:00</time>
      </trkpt>
      <trkpt lat="46.32354" lon="-0.46766">
        <ele>22</ele>
        <time>2023-07-18T15:57:50.836+00:00</time>
      </trkpt>
      <trkpt lat="46.32349" lon="-0.46764">
        <ele>24</ele>
        <time>2023-07-18T15:57:55.030+00:00</time>
      </trkpt>
      <trkpt lat="46.32344" lon="-0.46761">
        <ele>27</ele>
        <time>2023-07-18T15:57:59.101+00:00</time>
      </trkpt>
      <trkpt lat="46.32338" lon="-0.46757">
        <ele>27</ele>
        <time>2023-07-18T15:58:03.706+00:00</time>
      </trkpt>
      <trkpt lat="46.32334" lon="-0.46755">
        <ele>27</ele>
        <time>2023-07-18T15:58:07.712+00:00</time>
      </trkpt>
      <trkpt lat="46.3233" lon="-0.46752">
        <ele>27</ele>
        <time>2023-07-18T15:58:11.715+00:00</time>
      </trkpt>
      <trkpt lat="46.32326" lon="-0.4675">
        <ele>27</ele>
        <time>2023-07-18T15:58:15.818+00:00</time>
      </trkpt>
      <trkpt lat="46.32321" lon="-0.46747">
        <ele>27</ele>
        <time>2023-07-18T15:58:20.522+00:00</time>
      </trkpt>
      <trkpt lat="46.32317" lon="-0.46747">
        <ele>27</ele>
        <time>2023-07-18T15:58:25.025+00:00</time>
      </trkpt>
      <trkpt lat="46.32312" lon="-0.46745">
        <ele>27</ele>
        <time>2023-07-18T15:58:29.249+00:00</time>
      </trkpt>
      <trkpt lat="46.32307" lon="-0.46748">
        <ele>27</ele>
        <time>2023-07-18T15:58:33.252+00:00</time>
      </trkpt>
      <trkpt lat="46.32306" lon="-0.46754">
        <ele>27</ele>
        <time>2023-07-18T15:58:37.796+00:00</time>
      </trkpt>
      <trkpt lat="46.32302" lon="-0.46757">
        <ele>27</ele>
        <time>2023-07-18T15:58:42.399+00:00</time>
      </trkpt>
      <trkpt lat="46.32298" lon="-0.46757">
        <ele>27</ele>
        <time>2023-07-18T15:58:46.602+00:00</time>
      </trkpt>
      <trkpt lat="46.32297" lon="-0.46758">
        <ele>27</ele>
        <time>2023-07-18T15:58:50.664+00:00</time>
      </trkpt>
      <trkpt lat="46.32295" lon="-0.46754">
        <ele>27</ele>
        <time>2023-07-18T15:58:55.446+00:00</time>
      </trkpt>
      <trkpt lat="46.32292" lon="-0.46746">
        <ele>27</ele>
        <time>2023-07-18T15:58:59.347+00:00</time>
      </trkpt>
      <trkpt lat="46.3229" lon="-0.46741">
        <ele>26</ele>
        <time>2023-07-18T15:59:04.609+00:00</time>
      </trkpt>
      <trkpt lat="46.32283" lon="-0.46739">
        <ele>26</ele>
        <time>2023-07-18T15:59:09.129+00:00</time>
      </trkpt>
      <trkpt lat="46.32277" lon="-0.46736">
        <ele>27</ele>
        <time>2023-07-18T15:59:13.312+00:00</time>
      </trkpt>
      <trkpt lat="46.32273" lon="-0.46735">
        <ele>27</ele>
        <time>2023-07-18T15:59:17.821+00:00</time>
      </trkpt>
      <trkpt lat="46.32271" lon="-0.46734">
        <ele>27</ele>
        <time>2023-07-18T15:59:22.122+00:00</time>
      </trkpt>
      <trkpt lat="46.32265" lon="-0.46732">
        <ele>27</ele>
        <time>2023-07-18T15:59:26.757+00:00</time>
      </trkpt>
      <trkpt lat="46.3226" lon="-0.46729">
        <ele>26</ele>
        <time>2023-07-18T15:59:30.848+00:00</time>
      </trkpt>
      <trkpt lat="46.32252" lon="-0.46717">
        <ele>26</ele>
        <time>2023-07-18T16:02:24.997+00:00</time>
      </trkpt>
      <trkpt lat="46.3225" lon="-0.46715">
        <ele>26</ele>
        <time>2023-07-18T16:02:30.012+00:00</time>
      </trkpt>
      <trkpt lat="46.32248" lon="-0.46715">
        <ele>26</ele>
        <time>2023-07-18T16:02:34.530+00:00</time>
      </trkpt>
      <trkpt lat="46.32243" lon="-0.46716">
        <ele>26</ele>
        <time>2023-07-18T16:02:38.593+00:00</time>
      </trkpt>
      <trkpt lat="46.32236" lon="-0.46719">
        <ele>26</ele>
        <time>2023-07-18T16:02:42.815+00:00</time>
      </trkpt>
      <trkpt lat="46.32232" lon="-0.46719">
        <ele>26</ele>
        <time>2023-07-18T16:02:46.957+00:00</time>
      </trkpt>
      <trkpt lat="46.32226" lon="-0.46715">
        <ele>26</ele>
        <time>2023-07-18T16:02:51.531+00:00</time>
      </trkpt>
      <trkpt lat="46.32222" lon="-0.46716">
        <ele>26</ele>
        <time>2023-07-18T16:02:55.880+00:00</time>
      </trkpt>
      <trkpt lat="46.32218" lon="-0.46717">
        <ele>26</ele>
        <time>2023-07-18T16:02:59.701+00:00</time>
      </trkpt>
      <trkpt lat="46.32214" lon="-0.46716">
        <ele>26</ele>
        <time>2023-07-18T16:03:04.244+00:00</time>
      </trkpt>
      <trkpt lat="46.32209" lon="-0.46718">
        <ele>26</ele>
        <time>2023-07-18T16:03:08.749+00:00</time>
      </trkpt>
      <trkpt lat="46.32203" lon="-0.46719">
        <ele>26</ele>
        <time>2023-07-18T16:03:12.831+00:00</time>
      </trkpt>
      <trkpt lat="46.32196" lon="-0.46726">
        <ele>26</ele>
        <time>2023-07-18T16:03:17.394+00:00</time>
      </trkpt>
      <trkpt lat="46.3219" lon="-0.46729">
        <ele>26</ele>
        <time>2023-07-18T16:03:21.929+00:00</time>
      </trkpt>
      <trkpt lat="46.32184" lon="-0.4673">
        <ele>26</ele>
        <time>2023-07-18T16:03:26.296+00:00</time>
      </trkpt>
      <trkpt lat="46.32179" lon="-0.46731">
        <ele>26</ele>
        <time>2023-07-18T16:03:30.713+00:00</time>
      </trkpt>
      <trkpt lat="46.32173" lon="-0.46735">
        <ele>26</ele>
        <time>2023-07-18T16:03:35.134+00:00</time>
      </trkpt>
      <trkpt lat="46.32168" lon="-0.46737">
        <ele>26</ele>
        <time>2023-07-18T16:03:39.562+00:00</time>
      </trkpt>
      <trkpt lat="46.32164" lon="-0.46738">
        <ele>26</ele>
        <time>2023-07-18T16:03:43.923+00:00</time>
      </trkpt>
      <trkpt lat="46.3216" lon="-0.46742">
        <ele>26</ele>
        <time>2023-07-18T16:03:48.274+00:00</time>
      </trkpt>
      <trkpt lat="46.32157" lon="-0.46744">
        <ele>26</ele>
        <time>2023-07-18T16:03:52.756+00:00</time>
      </trkpt>
      <trkpt lat="46.32152" lon="-0.46747">
        <ele>26</ele>
        <time>2023-07-18T16:03:56.885+00:00</time>
      </trkpt>
      <trkpt lat="46.32149" lon="-0.46749">
        <ele>26</ele>
        <time>2023-07-18T16:04:01.187+00:00</time>
      </trkpt>
      <trkpt lat="46.32144" lon="-0.46752">
        <ele>26</ele>
        <time>2023-07-18T16:04:05.932+00:00</time>
      </trkpt>
      <trkpt lat="46.32137" lon="-0.46755">
        <ele>26</ele>
        <time>2023-07-18T16:04:10.315+00:00</time>
      </trkpt>
      <trkpt lat="46.32131" lon="-0.46757">
        <ele>26</ele>
        <time>2023-07-18T16:04:14.573+00:00</time>
      </trkpt>
      <trkpt lat="46.32125" lon="-0.4676">
        <ele>26</ele>
        <time>2023-07-18T16:04:18.715+00:00</time>
      </trkpt>
      <trkpt lat="46.32121" lon="-0.46763">
        <ele>26</ele>
        <time>2023-07-18T16:04:22.597+00:00</time>
      </trkpt>
      <trkpt lat="46.32115" lon="-0.46759">
        <ele>26</ele>
        <time>2023-07-18T16:04:27.499+00:00</time>
      </trkpt>
      <trkpt lat="46.32112" lon="-0.46764">
        <ele>26</ele>
        <time>2023-07-18T16:04:31.743+00:00</time>
      </trkpt>
      <trkpt lat="46.32108" lon="-0.46768">
        <ele>26</ele>
        <time>2023-07-18T16:04:36.143+00:00</time>
      </trkpt>
      <trkpt lat="46.32102" lon="-0.46771">
        <ele>26</ele>
        <time>2023-07-18T16:04:40.684+00:00</time>
      </trkpt>
      <trkpt lat="46.32098" lon="-0.46773">
        <ele>26</ele>
        <time>2023-07-18T16:04:45.026+00:00</time>
      </trkpt>
      <trkpt lat="46.32095" lon="-0.46776">
        <ele>26</ele>
        <time>2023-07-18T16:04:49.530+00:00</time>
      </trkpt>
      <trkpt lat="46.32091" lon="-0.46779">
        <ele>26</ele>
        <time>2023-07-18T16:04:54.051+00:00</time>
      </trkpt>
      <trkpt lat="46.32083" lon="-0.4678">
        <ele>26</ele>
        <time>2023-07-18T16:04:58.559+00:00</time>
      </trkpt>
      <trkpt lat="46.32079" lon="-0.46782">
        <ele>26</ele>
        <time>2023-07-18T16:05:03.183+00:00</time>
      </trkpt>
      <trkpt lat="46.32075" lon="-0.46783">
        <ele>26</ele>
        <time>2023-07-18T16:05:07.296+00:00</time>
      </trkpt>
      <trkpt lat="46.32068" lon="-0.46784">
        <ele>26</ele>
        <time>2023-07-18T16:05:11.848+00:00</time>
      </trkpt>
      <trkpt lat="46.32062" lon="-0.4679">
        <ele>26</ele>
        <time>2023-07-18T16:05:15.852+00:00</time>
      </trkpt>
      <trkpt lat="46.32057" lon="-0.46794">
        <ele>25</ele>
        <time>2023-07-18T16:05:20.089+00:00</time>
      </trkpt>
      <trkpt lat="46.32052" lon="-0.46797">
        <ele>25</ele>
        <time>2023-07-18T16:05:24.218+00:00</time>
      </trkpt>
      <trkpt lat="46.32048" lon="-0.46799">
        <ele>25</ele>
        <time>2023-07-18T16:05:28.801+00:00</time>
      </trkpt>
      <trkpt lat="46.32043" lon="-0.46802">
        <ele>25</ele>
        <time>2023-07-18T16:05:32.804+00:00</time>
      </trkpt>
      <trkpt lat="46.32037" lon="-0.46804">
        <ele>25</ele>
        <time>2023-07-18T16:05:36.807+00:00</time>
      </trkpt>
      <trkpt lat="46.32031" lon="-0.46804">
        <ele>25</ele>
        <time>2023-07-18T16:05:41.311+00:00</time>
      </trkpt>
      <trkpt lat="46.32026" lon="-0.46801">
        <ele>25</ele>
        <time>2023-07-18T16:05:45.928+00:00</time>
      </trkpt>
      <trkpt lat="46.32023" lon="-0.46807">
        <ele>25</ele>
        <time>2023-07-18T16:05:50.441+00:00</time>
      </trkpt>
      <trkpt lat="46.3202" lon="-0.46812">
        <ele>25</ele>
        <time>2023-07-18T16:05:54.450+00:00</time>
      </trkpt>
      <trkpt lat="46.32014" lon="-0.46811">
        <ele>25</ele>
        <time>2023-07-18T16:05:58.956+00:00</time>
      </trkpt>
      <trkpt lat="46.32009" lon="-0.46814">
        <ele>24</ele>
        <time>2023-07-18T16:06:03.062+00:00</time>
      </trkpt>
      <trkpt lat="46.32005" lon="-0.4682">
        <ele>24</ele>
        <time>2023-07-18T16:06:07.571+00:00</time>
      </trkpt>
      <trkpt lat="46.32001" lon="-0.46824">
        <ele>24</ele>
        <time>2023-07-18T16:06:12.080+00:00</time>
      </trkpt>
      <trkpt lat="46.31996" lon="-0.46827">
        <ele>24</ele>
        <time>2023-07-18T16:06:16.087+00:00</time>
      </trkpt>
      <trkpt lat="46.31992" lon="-0.46828">
        <ele>24</ele>
        <time>2023-07-18T16:06:20.595+00:00</time>
      </trkpt>
      <trkpt lat="46.31987" lon="-0.4683">
        <ele>24</ele>
        <time>2023-07-18T16:06:24.604+00:00</time>
      </trkpt>
      <trkpt lat="46.3198" lon="-0.46833">
        <ele>23</ele>
        <time>2023-07-18T16:06:28.713+00:00</time>
      </trkpt>
      <trkpt lat="46.31975" lon="-0.46836">
        <ele>23</ele>
        <time>2023-07-18T16:06:32.721+00:00</time>
      </trkpt>
      <trkpt lat="46.31971" lon="-0.46839">
        <ele>23</ele>
        <time>2023-07-18T16:06:37.227+00:00</time>
      </trkpt>
      <trkpt lat="46.31967" lon="-0.46843">
        <ele>23</ele>
        <time>2023-07-18T16:06:41.335+00:00</time>
      </trkpt>
      <trkpt lat="46.31962" lon="-0.46846">
        <ele>23</ele>
        <time>2023-07-18T16:06:45.951+00:00</time>
      </trkpt>
      <trkpt lat="46.3196" lon="-0.46848">
        <ele>23</ele>
        <time>2023-07-18T16:06:50.462+00:00</time>
      </trkpt>
      <trkpt lat="46.31956" lon="-0.46849">
        <ele>23</ele>
        <time>2023-07-18T16:06:54.971+00:00</time>
      </trkpt>
      <trkpt lat="46.3195" lon="-0.46852">
        <ele>23</ele>
        <time>2023-07-18T16:06:59.578+00:00</time>
      </trkpt>
      <trkpt lat="46.31945" lon="-0.46854">
        <ele>23</ele>
        <time>2023-07-18T16:07:04.083+00:00</time>
      </trkpt>
      <trkpt lat="46.3194" lon="-0.46853">
        <ele>23</ele>
        <time>2023-07-18T16:07:08.188+00:00</time>
      </trkpt>
      <trkpt lat="46.31937" lon="-0.46845">
        <ele>23</ele>
        <time>2023-07-18T16:07:12.794+00:00</time>
      </trkpt>
      <trkpt lat="46.31934" lon="-0.46846">
        <ele>23</ele>
        <time>2023-07-18T16:07:17.900+00:00</time>
      </trkpt>
      <trkpt lat="46.31931" lon="-0.46853">
        <ele>23</ele>
        <time>2023-07-18T16:07:22.003+00:00</time>
      </trkpt>
      <trkpt lat="46.31929" lon="-0.46857">
        <ele>22</ele>
        <time>2023-07-18T16:07:26.086+00:00</time>
      </trkpt>
      <trkpt lat="46.31924" lon="-0.46857">
        <ele>22</ele>
        <time>2023-07-18T16:07:30.630+00:00</time>
      </trkpt>
      <trkpt lat="46.31923" lon="-0.46853">
        <ele>22</ele>
        <time>2023-07-18T16:07:34.633+00:00</time>
      </trkpt>
      <trkpt lat="46.31921" lon="-0.4685">
        <ele>22</ele>
        <time>2023-07-18T16:07:38.638+00:00</time>
      </trkpt>
      <trkpt lat="46.31918" lon="-0.46843">
        <ele>22</ele>
        <time>2023-07-18T16:07:42.761+00:00</time>
      </trkpt>
      <trkpt lat="46.31915" lon="-0.46832">
        <ele>22</ele>
        <time>2023-07-18T16:07:47.266+00:00</time>
      </trkpt>
      <trkpt lat="46.31913" lon="-0.46825">
        <ele>22</ele>
        <time>2023-07-18T16:07:51.771+00:00</time>
      </trkpt>
      <trkpt lat="46.31911" lon="-0.46818">
        <ele>23</ele>
        <time>2023-07-18T16:07:55.779+00:00</time>
      </trkpt>
      <trkpt lat="46.31908" lon="-0.46815">
        <ele>23</ele>
        <time>2023-07-18T16:07:59.884+00:00</time>
      </trkpt>
      <trkpt lat="46.31907" lon="-0.4681">
        <ele>23</ele>
        <time>2023-07-18T16:08:04.092+00:00</time>
      </trkpt>
      <trkpt lat="46.31909" lon="-0.468">
        <ele>23</ele>
        <time>2023-07-18T16:08:08.705+00:00</time>
      </trkpt>
      <trkpt lat="46.31904" lon="-0.46798">
        <ele>23</ele>
        <time>2023-07-18T16:08:13.713+00:00</time>
      </trkpt>
      <trkpt lat="46.31902" lon="-0.46799">
        <ele>23</ele>
        <time>2023-07-18T16:08:17.718+00:00</time>
      </trkpt>
    </trkseg>
  </trk>
</gpx>